PWSweather.com
Personal Weather Stations
Station Observations
ISECTOR12
Mogosoaia, Otopeni, BucurestiRO 013822

Mogosoaia, OtopeniBucurestiRO 013822

Lat: 44.50370026, Lon: 26.0428009

Elevation: 305

Station Type: WS-2080

http://weather.modoran.net

Latest ConditionsUpdated 9:18:02 AM GMT+02:02 Wednesday, Feb 21, 2018
Currently Today's Max Today's Min Today's Average
Temperature 33.6°F0.9°C 33.6°F0.9°C 32.4°F0.2°C 32.6°F0.3°C
Dew Point 2.4°F-16.4°C 5.5°F-14.7°C 1.5°F-16.9°C 3.3°F-15.9°C
Winds 2.5 mph NE4.0 kmh NE 4.5 mph ENE7.2 kmh ENE - 1.8 mph 2.9 kmh
Wind Gusts 12.1 mph19.5 kmh 17.4 mph28.0 kmh - -
Humidity 26% 31% 26% 28%
Pressure 29.46 in997.6 mb 29.49 in998.6 mb 29.45 in997.3 mb -
Hour Temp Dew Point Humidity Winds Wind Gusts Pressure Precip Precip Rate Daily Precip Total
09:18 AM 33.6°F0.9°C 2.4°F-16.4°C 26% 2.5 mph NE4.0 kmh NE 12.1 mph19.5 kmh 29.46 in997.6 mb 0.00 in0.0 mm 0.00 in0.0 mm 0.00 in0.0 mm
09:17 AM 33.6°F0.9°C 2.4°F-16.4°C 26% 2.8 mph NE4.5 kmh NE 12.1 mph19.5 kmh 29.46 in997.6 mb 0.00 in0.0 mm 0.00 in0.0 mm 0.00 in0.0 mm
09:16 AM 33.6°F0.9°C 2.4°F-16.4°C 26% 3.1 mph NE5.0 kmh NE 12.1 mph19.5 kmh 29.46 in997.6 mb 0.00 in0.0 mm 0.00 in0.0 mm 0.00 in0.0 mm
09:15 AM 33.6°F0.9°C 2.4°F-16.4°C 26% 3.1 mph NE5.0 kmh NE 12.1 mph19.5 kmh 29.46 in997.6 mb 0.00 in0.0 mm 0.00 in0.0 mm 0.00 in0.0 mm
09:14 AM 33.6°F0.9°C 2.4°F-16.4°C 26% 3.1 mph NE5.0 kmh NE 12.1 mph19.5 kmh 29.46 in997.6 mb 0.00 in0.0 mm 0.00 in0.0 mm 0.00 in0.0 mm
09:13 AM 33.4°F0.8°C 2.3°F-16.5°C 26% 3.4 mph ENE5.5 kmh ENE 12.1 mph19.5 kmh 29.46 in997.6 mb 0.00 in0.0 mm 0.00 in0.0 mm 0.00 in0.0 mm
09:12 AM 33.4°F0.8°C 2.3°F-16.5°C 26% 3.5 mph E5.6 kmh E 12.1 mph19.5 kmh 29.46 in997.6 mb 0.00 in0.0 mm 0.00 in0.0 mm 0.00 in0.0 mm
09:11 AM 33.4°F0.8°C 2.3°F-16.5°C 26% 3.2 mph E5.1 kmh E 12.1 mph19.5 kmh 29.46 in997.6 mb 0.00 in0.0 mm 0.00 in0.0 mm 0.00 in0.0 mm
09:10 AM 33.4°F0.8°C 2.3°F-16.5°C 26% 3.2 mph E5.1 kmh E 12.1 mph19.5 kmh 29.46 in997.6 mb 0.00 in0.0 mm 0.00 in0.0 mm 0.00 in0.0 mm
09:09 AM 33.4°F0.8°C 2.3°F-16.5°C 26% 3.3 mph ENE5.3 kmh ENE 12.1 mph19.5 kmh 29.46 in997.6 mb 0.00 in0.0 mm 0.00 in0.0 mm 0.00 in0.0 mm
09:08 AM 33.4°F0.8°C 2.3°F-16.5°C 26% 3.3 mph ENE5.3 kmh ENE 13.0 mph20.9 kmh 29.46 in997.6 mb 0.00 in0.0 mm 0.00 in0.0 mm 0.00 in0.0 mm
09:07 AM 33.4°F0.8°C 2.3°F-16.5°C 26% 3.6 mph E5.8 kmh E 13.0 mph20.9 kmh 29.46 in997.6 mb 0.00 in0.0 mm 0.00 in0.0 mm 0.00 in0.0 mm
09:06 AM 33.4°F0.8°C 2.3°F-16.5°C 26% 3.4 mph ENE5.5 kmh ENE 13.0 mph20.9 kmh 29.46 in997.6 mb 0.00 in0.0 mm 0.00 in0.0 mm 0.00 in0.0 mm
09:05 AM 33.4°F0.8°C 2.3°F-16.5°C 26% 3.5 mph ENE5.6 kmh ENE 13.0 mph20.9 kmh 29.46 in997.6 mb 0.00 in0.0 mm 0.00 in0.0 mm 0.00 in0.0 mm
09:04 AM 33.4°F0.8°C 2.3°F-16.5°C 26% 3.9 mph NE6.3 kmh NE 13.0 mph20.9 kmh 29.46 in997.6 mb 0.00 in0.0 mm 0.00 in0.0 mm 0.00 in0.0 mm
09:03 AM 33.4°F0.8°C 2.3°F-16.5°C 26% 4.3 mph NE6.9 kmh NE 13.0 mph20.9 kmh 29.46 in997.6 mb 0.00 in0.0 mm 0.00 in0.0 mm 0.00 in0.0 mm
09:02 AM 33.4°F0.8°C 2.3°F-16.5°C 26% 4.2 mph NE6.8 kmh NE 13.0 mph20.9 kmh 29.46 in997.6 mb 0.00 in0.0 mm 0.00 in0.0 mm 0.00 in0.0 mm
09:01 AM 33.4°F0.8°C 2.3°F-16.5°C 26% 4.3 mph NE6.9 kmh NE 13.0 mph20.9 kmh 29.46 in997.6 mb 0.00 in0.0 mm 0.00 in0.0 mm 0.00 in0.0 mm
09:00 AM 33.4°F0.8°C 2.3°F-16.5°C 26% 4.3 mph NE6.9 kmh NE 13.0 mph20.9 kmh 29.46 in997.6 mb 0.00 in0.0 mm 0.00 in0.0 mm 0.00 in0.0 mm
08:59 AM 33.4°F0.8°C 2.3°F-16.5°C 26% 4.1 mph NE6.6 kmh NE 13.0 mph20.9 kmh 29.46 in997.6 mb 0.00 in0.0 mm 0.00 in0.0 mm 0.00 in0.0 mm
08:58 AM 33.4°F0.8°C 2.3°F-16.5°C 26% 4.1 mph E6.6 kmh E 14.5 mph23.3 kmh 29.46 in997.6 mb 0.00 in0.0 mm 0.00 in0.0 mm 0.00 in0.0 mm
08:57 AM 33.3°F0.7°C 2.1°F-16.6°C 26% 3.8 mph ENE6.1 kmh ENE 14.5 mph23.3 kmh 29.46 in997.6 mb 0.00 in0.0 mm 0.00 in0.0 mm 0.00 in0.0 mm
08:56 AM 33.3°F0.7°C 2.1°F-16.6°C 26% 4.0 mph ENE6.4 kmh ENE 14.5 mph23.3 kmh 29.46 in997.6 mb 0.00 in0.0 mm 0.00 in0.0 mm 0.00 in0.0 mm
08:55 AM 33.4°F0.8°C 2.3°F-16.5°C 26% 3.6 mph E5.8 kmh E 14.5 mph23.3 kmh 29.46 in997.6 mb 0.00 in0.0 mm 0.00 in0.0 mm 0.00 in0.0 mm
08:54 AM 33.4°F0.8°C 2.3°F-16.5°C 26% 3.2 mph E5.1 kmh E 14.5 mph23.3 kmh 29.46 in997.6 mb 0.00 in0.0 mm 0.00 in0.0 mm 0.00 in0.0 mm
08:53 AM 33.3°F0.7°C 2.1°F-16.6°C 26% 2.6 mph E4.2 kmh E 14.5 mph23.3 kmh 29.46 in997.6 mb 0.00 in0.0 mm 0.00 in0.0 mm 0.00 in0.0 mm
08:52 AM 33.3°F0.7°C 2.1°F-16.6°C 26% 2.4 mph ESE3.9 kmh ESE 14.5 mph23.3 kmh 29.46 in997.6 mb 0.00 in0.0 mm 0.00 in0.0 mm 0.00 in0.0 mm
08:51 AM 33.3°F0.7°C 2.1°F-16.6°C 26% 2.6 mph E4.2 kmh E 14.5 mph23.3 kmh 29.46 in997.6 mb 0.00 in0.0 mm 0.00 in0.0 mm 0.00 in0.0 mm
08:50 AM 33.3°F0.7°C 2.1°F-16.6°C 26% 2.9 mph NE4.7 kmh NE 14.5 mph23.3 kmh 29.46 in997.6 mb 0.00 in0.0 mm 0.00 in0.0 mm 0.00 in0.0 mm
08:49 AM 33.4°F0.8°C 3.1°F-16.1°C 27% 3.1 mph NE5.0 kmh NE 14.5 mph23.3 kmh 29.46 in997.6 mb 0.00 in0.0 mm 0.00 in0.0 mm 0.00 in0.0 mm
08:48 AM 33.3°F0.7°C 2.1°F-16.6°C 26% 2.7 mph NE4.3 kmh NE 9.2 mph14.8 kmh 29.46 in997.6 mb 0.00 in0.0 mm 0.00 in0.0 mm 0.00 in0.0 mm
08:47 AM 33.3°F0.7°C 2.9°F-16.2°C 27% 2.6 mph NE4.2 kmh NE 9.2 mph14.8 kmh 29.46 in997.6 mb 0.00 in0.0 mm 0.00 in0.0 mm 0.00 in0.0 mm
08:46 AM 33.3°F0.7°C 2.9°F-16.2°C 27% 2.3 mph NE3.7 kmh NE 9.2 mph14.8 kmh 29.46 in997.6 mb 0.00 in0.0 mm 0.00 in0.0 mm 0.00 in0.0 mm
08:45 AM 33.3°F0.7°C 2.9°F-16.2°C 27% 2.5 mph NE4.0 kmh NE 9.2 mph14.8 kmh 29.46 in997.6 mb 0.00 in0.0 mm 0.00 in0.0 mm 0.00 in0.0 mm
08:44 AM 33.3°F0.7°C 2.1°F-16.6°C 26% 3.0 mph NE4.8 kmh NE 14.5 mph23.3 kmh 29.46 in997.6 mb 0.00 in0.0 mm 0.00 in0.0 mm 0.00 in0.0 mm
08:43 AM 33.3°F0.7°C 2.1°F-16.6°C 26% 3.5 mph NE5.6 kmh NE 14.5 mph23.3 kmh 29.46 in997.6 mb 0.00 in0.0 mm 0.00 in0.0 mm 0.00 in0.0 mm
08:42 AM 33.3°F0.7°C 2.1°F-16.6°C 26% 3.8 mph NE6.1 kmh NE 14.5 mph23.3 kmh 29.46 in997.6 mb 0.00 in0.0 mm 0.00 in0.0 mm 0.00 in0.0 mm
08:41 AM 33.3°F0.7°C 2.9°F-16.2°C 27% 3.9 mph ENE6.3 kmh ENE 14.5 mph23.3 kmh 29.46 in997.6 mb 0.00 in0.0 mm 0.00 in0.0 mm 0.00 in0.0 mm
08:40 AM 33.3°F0.7°C 2.9°F-16.2°C 27% 3.8 mph ENE6.1 kmh ENE 14.5 mph23.3 kmh 29.46 in997.6 mb 0.00 in0.0 mm 0.00 in0.0 mm 0.00 in0.0 mm
08:39 AM 33.3°F0.7°C 2.1°F-16.6°C 26% 3.7 mph E6.0 kmh E 14.5 mph23.3 kmh 29.46 in997.6 mb 0.00 in0.0 mm 0.00 in0.0 mm 0.00 in0.0 mm
08:38 AM 33.3°F0.7°C 2.1°F-16.6°C 26% 4.1 mph E6.6 kmh E 14.5 mph23.3 kmh 29.46 in997.6 mb 0.00 in0.0 mm 0.00 in0.0 mm 0.00 in0.0 mm
08:37 AM 33.3°F0.7°C 2.1°F-16.6°C 26% 4.1 mph E6.6 kmh E 14.5 mph23.3 kmh 29.47 in998.0 mb 0.00 in0.0 mm 0.00 in0.0 mm 0.00 in0.0 mm
08:36 AM 33.3°F0.7°C 2.1°F-16.6°C 26% 4.4 mph E7.1 kmh E 14.5 mph23.3 kmh 29.47 in998.0 mb 0.00 in0.0 mm 0.00 in0.0 mm 0.00 in0.0 mm
08:35 AM 33.3°F0.7°C 2.1°F-16.6°C 26% 4.5 mph NE7.2 kmh NE 14.5 mph23.3 kmh 29.47 in998.0 mb 0.00 in0.0 mm 0.00 in0.0 mm 0.00 in0.0 mm
08:34 AM 33.3°F0.7°C 2.1°F-16.6°C 26% 4.5 mph ENE7.2 kmh ENE 14.5 mph23.3 kmh 29.46 in997.6 mb 0.00 in0.0 mm 0.00 in0.0 mm 0.00 in0.0 mm
08:33 AM 33.3°F0.7°C 2.1°F-16.6°C 26% 4.0 mph NE6.4 kmh NE 11.4 mph18.3 kmh 29.46 in997.6 mb 0.00 in0.0 mm 0.00 in0.0 mm 0.00 in0.0 mm
08:32 AM 33.3°F0.7°C 2.1°F-16.6°C 26% 3.9 mph NE6.3 kmh NE 11.4 mph18.3 kmh 29.46 in997.6 mb 0.00 in0.0 mm 0.00 in0.0 mm 0.00 in0.0 mm
08:31 AM 33.3°F0.7°C 2.1°F-16.6°C 26% 3.7 mph NNE6.0 kmh NNE 11.4 mph18.3 kmh 29.46 in997.6 mb 0.00 in0.0 mm 0.00 in0.0 mm 0.00 in0.0 mm
08:30 AM 33.3°F0.7°C 2.1°F-16.6°C 26% 3.6 mph N5.8 kmh N 11.4 mph18.3 kmh 29.46 in997.6 mb 0.00 in0.0 mm 0.00 in0.0 mm 0.00 in0.0 mm
08:29 AM 33.3°F0.7°C 2.1°F-16.6°C 26% 3.6 mph NNE5.8 kmh NNE 11.4 mph18.3 kmh 29.46 in997.6 mb 0.00 in0.0 mm 0.00 in0.0 mm 0.00 in0.0 mm
08:28 AM 33.3°F0.7°C 2.1°F-16.6°C 26% 3.1 mph NNE5.0 kmh NNE 11.4 mph18.3 kmh 29.47 in998.0 mb 0.00 in0.0 mm 0.00 in0.0 mm 0.00 in0.0 mm
08:27 AM 33.3°F0.7°C 2.1°F-16.6°C 26% 3.1 mph N5.0 kmh N 11.4 mph18.3 kmh 29.46 in997.6 mb 0.00 in0.0 mm 0.00 in0.0 mm 0.00 in0.0 mm
08:26 AM 33.3°F0.7°C 2.1°F-16.6°C 26% 3.2 mph N5.1 kmh N 11.4 mph18.3 kmh 29.46 in997.6 mb 0.00 in0.0 mm 0.00 in0.0 mm 0.00 in0.0 mm
08:25 AM 33.3°F0.7°C 2.9°F-16.2°C 27% 3.0 mph NE4.8 kmh NE 11.4 mph18.3 kmh 29.47 in998.0 mb 0.00 in0.0 mm 0.00 in0.0 mm 0.00 in0.0 mm
08:24 AM 33.3°F0.7°C 2.9°F-16.2°C 27% 2.8 mph NE4.5 kmh NE 9.8 mph15.8 kmh 29.46 in997.6 mb 0.00 in0.0 mm 0.00 in0.0 mm 0.00 in0.0 mm
08:23 AM 33.3°F0.7°C 2.1°F-16.6°C 26% 3.1 mph NE5.0 kmh NE 9.8 mph15.8 kmh 29.47 in998.0 mb 0.00 in0.0 mm 0.00 in0.0 mm 0.00 in0.0 mm
08:22 AM 33.3°F0.7°C 2.1°F-16.6°C 26% 3.1 mph ENE5.0 kmh ENE 15.9 mph25.6 kmh 29.46 in997.6 mb 0.00 in0.0 mm 0.00 in0.0 mm 0.00 in0.0 mm
08:21 AM 33.1°F0.6°C 2.0°F-16.7°C 26% 3.4 mph ENE5.5 kmh ENE 15.9 mph25.6 kmh 29.47 in998.0 mb 0.00 in0.0 mm 0.00 in0.0 mm 0.00 in0.0 mm
08:20 AM 33.1°F0.6°C 2.0°F-16.7°C 26% 3.3 mph ENE5.3 kmh ENE 15.9 mph25.6 kmh 29.47 in998.0 mb 0.00 in0.0 mm 0.00 in0.0 mm 0.00 in0.0 mm
08:19 AM 33.1°F0.6°C 2.0°F-16.7°C 26% 3.0 mph ENE4.8 kmh ENE 15.9 mph25.6 kmh 29.46 in997.6 mb 0.00 in0.0 mm 0.00 in0.0 mm 0.00 in0.0 mm
08:18 AM 33.1°F0.6°C 2.0°F-16.7°C 26% 2.8 mph ENE4.5 kmh ENE 15.9 mph25.6 kmh 29.47 in998.0 mb 0.00 in0.0 mm 0.00 in0.0 mm 0.00 in0.0 mm
08:17 AM 33.3°F0.7°C 2.1°F-16.6°C 26% 2.7 mph ENE4.3 kmh ENE 15.9 mph25.6 kmh 29.47 in998.0 mb 0.00 in0.0 mm 0.00 in0.0 mm 0.00 in0.0 mm
08:16 AM 33.1°F0.6°C 2.0°F-16.7°C 26% 2.3 mph ENE3.7 kmh ENE 15.9 mph25.6 kmh 29.47 in998.0 mb 0.00 in0.0 mm 0.00 in0.0 mm 0.00 in0.0 mm
08:15 AM 33.3°F0.7°C 2.1°F-16.6°C 26% 2.2 mph ENE3.5 kmh ENE 15.9 mph25.6 kmh 29.47 in998.0 mb 0.00 in0.0 mm 0.00 in0.0 mm 0.00 in0.0 mm
08:14 AM 33.3°F0.7°C 2.1°F-16.6°C 26% 1.8 mph ENE2.9 kmh ENE 15.9 mph25.6 kmh 29.47 in998.0 mb 0.00 in0.0 mm 0.00 in0.0 mm 0.00 in0.0 mm
08:13 AM 33.3°F0.7°C 2.1°F-16.6°C 26% 1.4 mph NE2.3 kmh NE 15.9 mph25.6 kmh 29.47 in998.0 mb 0.00 in0.0 mm 0.00 in0.0 mm 0.00 in0.0 mm
08:12 AM 33.3°F0.7°C 2.1°F-16.6°C 26% 1.4 mph NE2.3 kmh NE 15.9 mph25.6 kmh 29.46 in997.6 mb 0.00 in0.0 mm 0.00 in0.0 mm 0.00 in0.0 mm
08:11 AM 33.3°F0.7°C 2.1°F-16.6°C 26% 1.3 mph NNE2.1 kmh NNE 8.3 mph13.4 kmh 29.47 in998.0 mb 0.00 in0.0 mm 0.00 in0.0 mm 0.00 in0.0 mm
08:10 AM 33.3°F0.7°C 2.1°F-16.6°C 26% 1.3 mph NNE2.1 kmh NNE 9.2 mph14.8 kmh 29.46 in997.6 mb 0.00 in0.0 mm 0.00 in0.0 mm 0.00 in0.0 mm
08:09 AM 33.3°F0.7°C 2.1°F-16.6°C 26% 1.6 mph NNE2.6 kmh NNE 9.2 mph14.8 kmh 29.46 in997.6 mb 0.00 in0.0 mm 0.00 in0.0 mm 0.00 in0.0 mm
08:08 AM 33.3°F0.7°C 2.1°F-16.6°C 26% 1.6 mph NNE2.6 kmh NNE 9.2 mph14.8 kmh 29.47 in998.0 mb 0.00 in0.0 mm 0.00 in0.0 mm 0.00 in0.0 mm
08:07 AM 33.3°F0.7°C 2.9°F-16.2°C 27% 1.7 mph NNE2.7 kmh NNE 9.2 mph14.8 kmh 29.46 in997.6 mb 0.00 in0.0 mm 0.00 in0.0 mm 0.00 in0.0 mm
08:06 AM 33.3°F0.7°C 2.9°F-16.2°C 27% 1.8 mph NNE2.9 kmh NNE 9.2 mph14.8 kmh 29.47 in998.0 mb 0.00 in0.0 mm 0.00 in0.0 mm 0.00 in0.0 mm
08:05 AM 33.3°F0.7°C 2.9°F-16.2°C 27% 2.1 mph NE3.4 kmh NE 10.7 mph17.2 kmh 29.47 in998.0 mb 0.00 in0.0 mm 0.00 in0.0 mm 0.00 in0.0 mm
08:04 AM 33.3°F0.7°C 2.9°F-16.2°C 27% 2.6 mph NE4.2 kmh NE 10.7 mph17.2 kmh 29.47 in998.0 mb 0.00 in0.0 mm 0.00 in0.0 mm 0.00 in0.0 mm
08:03 AM 33.3°F0.7°C 2.9°F-16.2°C 27% 2.6 mph ENE4.2 kmh ENE 10.7 mph17.2 kmh 29.47 in998.0 mb 0.00 in0.0 mm 0.00 in0.0 mm 0.00 in0.0 mm
08:02 AM 33.3°F0.7°C 2.9°F-16.2°C 27% 2.4 mph ENE3.9 kmh ENE 10.7 mph17.2 kmh 29.46 in997.6 mb 0.00 in0.0 mm 0.00 in0.0 mm 0.00 in0.0 mm
08:01 AM 33.1°F0.6°C 2.8°F-16.2°C 27% 2.2 mph E3.5 kmh E 10.7 mph17.2 kmh 29.47 in998.0 mb 0.00 in0.0 mm 0.00 in0.0 mm 0.00 in0.0 mm
08:00 AM 33.1°F0.6°C 2.8°F-16.2°C 27% 2.4 mph E3.9 kmh E 10.7 mph17.2 kmh 29.47 in998.0 mb 0.00 in0.0 mm 0.00 in0.0 mm 0.00 in0.0 mm
07:59 AM 33.1°F0.6°C 2.8°F-16.2°C 27% 2.3 mph ESE3.7 kmh ESE 10.7 mph17.2 kmh 29.47 in998.0 mb 0.00 in0.0 mm 0.00 in0.0 mm 0.00 in0.0 mm
07:58 AM 33.1°F0.6°C 2.8°F-16.2°C 27% 2.0 mph SE3.2 kmh SE 10.7 mph17.2 kmh 29.46 in997.6 mb 0.00 in0.0 mm 0.00 in0.0 mm 0.00 in0.0 mm
07:57 AM 33.1°F0.6°C 2.8°F-16.2°C 27% 2.0 mph SE3.2 kmh SE 10.7 mph17.2 kmh 29.47 in998.0 mb 0.00 in0.0 mm 0.00 in0.0 mm 0.00 in0.0 mm
07:56 AM 33.1°F0.6°C 3.6°F-15.8°C 28% 1.8 mph ESE2.9 kmh ESE 10.7 mph17.2 kmh 29.47 in998.0 mb 0.00 in0.0 mm 0.00 in0.0 mm 0.00 in0.0 mm
07:55 AM 33.1°F0.6°C 3.6°F-15.8°C 28% 1.4 mph SE2.3 kmh SE 10.7 mph17.2 kmh 29.47 in998.0 mb 0.00 in0.0 mm 0.00 in0.0 mm 0.00 in0.0 mm
07:54 AM 33.1°F0.6°C 3.6°F-15.8°C 28% 1.2 mph SE1.9 kmh SE 9.8 mph15.8 kmh 29.47 in998.0 mb 0.00 in0.0 mm 0.00 in0.0 mm 0.00 in0.0 mm
07:53 AM 33.1°F0.6°C 3.6°F-15.8°C 28% 1.5 mph SE2.4 kmh SE 9.8 mph15.8 kmh 29.47 in998.0 mb 0.00 in0.0 mm 0.00 in0.0 mm 0.00 in0.0 mm
07:52 AM 33.1°F0.6°C 3.6°F-15.8°C 28% 1.7 mph SE2.7 kmh SE 9.8 mph15.8 kmh 29.47 in998.0 mb 0.00 in0.0 mm 0.00 in0.0 mm 0.00 in0.0 mm
07:51 AM 33.1°F0.6°C 3.6°F-15.8°C 28% 1.6 mph SE2.6 kmh SE 9.8 mph15.8 kmh 29.47 in998.0 mb 0.00 in0.0 mm 0.00 in0.0 mm 0.00 in0.0 mm
07:50 AM 33.1°F0.6°C 4.3°F-15.4°C 29% 1.4 mph E2.3 kmh E 9.8 mph15.8 kmh 29.46 in997.6 mb 0.00 in0.0 mm 0.00 in0.0 mm 0.00 in0.0 mm
07:49 AM 33.1°F0.6°C 4.3°F-15.4°C 29% 1.4 mph E2.3 kmh E 6.9 mph11.1 kmh 29.47 in998.0 mb 0.00 in0.0 mm 0.00 in0.0 mm 0.00 in0.0 mm
07:48 AM 33.1°F0.6°C 4.3°F-15.4°C 29% 1.7 mph NE2.7 kmh NE 8.3 mph13.4 kmh 29.47 in998.0 mb 0.00 in0.0 mm 0.00 in0.0 mm 0.00 in0.0 mm
07:47 AM 32.9°F0.5°C 4.2°F-15.4°C 29% 1.8 mph NE2.9 kmh NE 8.3 mph13.4 kmh 29.46 in997.6 mb 0.00 in0.0 mm 0.00 in0.0 mm 0.00 in0.0 mm
07:46 AM 32.9°F0.5°C 4.2°F-15.4°C 29% 1.8 mph NE2.9 kmh NE 8.3 mph13.4 kmh 29.47 in998.0 mb 0.00 in0.0 mm 0.00 in0.0 mm 0.00 in0.0 mm
07:45 AM 32.9°F0.5°C 4.2°F-15.4°C 29% 2.0 mph NE3.2 kmh NE 8.3 mph13.4 kmh 29.47 in998.0 mb 0.00 in0.0 mm 0.00 in0.0 mm 0.00 in0.0 mm
07:44 AM 32.9°F0.5°C 4.2°F-15.4°C 29% 1.9 mph NE3.1 kmh NE 8.3 mph13.4 kmh 29.47 in998.0 mb 0.00 in0.0 mm 0.00 in0.0 mm 0.00 in0.0 mm
07:43 AM 32.9°F0.5°C 4.2°F-15.4°C 29% 1.6 mph NE2.6 kmh NE 8.3 mph13.4 kmh 29.47 in998.0 mb 0.00 in0.0 mm 0.00 in0.0 mm 0.00 in0.0 mm
07:42 AM 32.9°F0.5°C 4.2°F-15.4°C 29% 1.4 mph N2.3 kmh N 9.8 mph15.8 kmh 29.47 in998.0 mb 0.00 in0.0 mm 0.00 in0.0 mm 0.00 in0.0 mm
07:41 AM 32.9°F0.5°C 4.2°F-15.4°C 29% 1.9 mph NE3.1 kmh NE 9.8 mph15.8 kmh 29.47 in998.0 mb 0.00 in0.0 mm 0.00 in0.0 mm 0.00 in0.0 mm
07:40 AM 32.9°F0.5°C 4.2°F-15.4°C 29% 2.0 mph NE3.2 kmh NE 9.8 mph15.8 kmh 29.47 in998.0 mb 0.00 in0.0 mm 0.00 in0.0 mm 0.00 in0.0 mm
07:39 AM 32.9°F0.5°C 4.2°F-15.4°C 29% 2.0 mph NE3.2 kmh NE 9.8 mph15.8 kmh 29.47 in998.0 mb 0.00 in0.0 mm 0.00 in0.0 mm 0.00 in0.0 mm
07:38 AM 32.9°F0.5°C 4.2°F-15.4°C 29% 1.9 mph E3.1 kmh E 9.8 mph15.8 kmh 29.47 in998.0 mb 0.00 in0.0 mm 0.00 in0.0 mm 0.00 in0.0 mm
07:37 AM 32.9°F0.5°C 4.2°F-15.4°C 29% 1.9 mph E3.1 kmh E 9.8 mph15.8 kmh 29.47 in998.0 mb 0.00 in0.0 mm 0.00 in0.0 mm 0.00 in0.0 mm
07:36 AM 32.9°F0.5°C 4.2°F-15.4°C 29% 2.1 mph E3.4 kmh E 9.8 mph15.8 kmh 29.47 in998.0 mb 0.00 in0.0 mm 0.00 in0.0 mm 0.00 in0.0 mm
07:35 AM 32.9°F0.5°C 4.2°F-15.4°C 29% 2.4 mph E3.9 kmh E 9.8 mph15.8 kmh 29.47 in998.0 mb 0.00 in0.0 mm 0.00 in0.0 mm 0.00 in0.0 mm
07:34 AM 32.9°F0.5°C 4.2°F-15.4°C 29% 2.6 mph ENE4.2 kmh ENE 9.8 mph15.8 kmh 29.47 in998.0 mb 0.00 in0.0 mm 0.00 in0.0 mm 0.00 in0.0 mm
07:33 AM 32.9°F0.5°C 4.2°F-15.4°C 29% 2.6 mph ENE4.2 kmh ENE 9.8 mph15.8 kmh 29.47 in998.0 mb 0.00 in0.0 mm 0.00 in0.0 mm 0.00 in0.0 mm
07:32 AM 32.9°F0.5°C 4.2°F-15.4°C 29% 2.7 mph ENE4.3 kmh ENE 9.8 mph15.8 kmh 29.47 in998.0 mb 0.00 in0.0 mm 0.00 in0.0 mm 0.00 in0.0 mm
07:31 AM 32.9°F0.5°C 4.2°F-15.4°C 29% 2.4 mph ENE3.9 kmh ENE 9.8 mph15.8 kmh 29.47 in998.0 mb 0.00 in0.0 mm 0.00 in0.0 mm 0.00 in0.0 mm
07:30 AM 32.9°F0.5°C 4.2°F-15.4°C 29% 2.5 mph E4.0 kmh E 9.8 mph15.8 kmh 29.47 in998.0 mb 0.00 in0.0 mm 0.00 in0.0 mm 0.00 in0.0 mm
07:29 AM 32.7°F0.4°C 4.0°F-15.6°C 29% 2.5 mph ENE4.0 kmh ENE 9.8 mph15.8 kmh 29.47 in998.0 mb 0.00 in0.0 mm 0.00 in0.0 mm 0.00 in0.0 mm
07:28 AM 32.7°F0.4°C 4.0°F-15.6°C 29% 2.5 mph NE4.0 kmh NE 9.8 mph15.8 kmh 29.47 in998.0 mb 0.00 in0.0 mm 0.00 in0.0 mm 0.00 in0.0 mm
07:27 AM 32.7°F0.4°C 4.0°F-15.6°C 29% 2.4 mph NE3.9 kmh NE 9.8 mph15.8 kmh 29.47 in998.0 mb 0.00 in0.0 mm 0.00 in0.0 mm 0.00 in0.0 mm
07:26 AM 32.7°F0.4°C 4.0°F-15.6°C 29% 2.4 mph NNE3.9 kmh NNE 9.8 mph15.8 kmh 29.47 in998.0 mb 0.00 in0.0 mm 0.00 in0.0 mm 0.00 in0.0 mm
07:25 AM 32.7°F0.4°C 4.0°F-15.6°C 29% 2.3 mph NE3.7 kmh NE 9.8 mph15.8 kmh 29.47 in998.0 mb 0.00 in0.0 mm 0.00 in0.0 mm 0.00 in0.0 mm
07:24 AM 32.7°F0.4°C 4.0°F-15.6°C 29% 2.0 mph NE3.2 kmh NE 9.8 mph15.8 kmh 29.47 in998.0 mb 0.00 in0.0 mm 0.00 in0.0 mm 0.00 in0.0 mm
07:23 AM 32.7°F0.4°C 4.0°F-15.6°C 29% 2.1 mph NE3.4 kmh NE 9.8 mph15.8 kmh 29.47 in998.0 mb 0.00 in0.0 mm 0.00 in0.0 mm 0.00 in0.0 mm
07:22 AM 32.7°F0.4°C 4.0°F-15.6°C 29% 2.1 mph NE3.4 kmh NE 9.8 mph15.8 kmh 29.47 in998.0 mb 0.00 in0.0 mm 0.00 in0.0 mm 0.00 in0.0 mm
07:21 AM 32.7°F0.4°C 3.3°F-15.9°C 28% 2.1 mph NE3.4 kmh NE 9.8 mph15.8 kmh 29.47 in998.0 mb 0.00 in0.0 mm 0.00 in0.0 mm 0.00 in0.0 mm
07:20 AM 32.7°F0.4°C 3.3°F-15.9°C 28% 1.7 mph NE2.7 kmh NE 7.6 mph12.2 kmh 29.47 in998.0 mb 0.00 in0.0 mm 0.00 in0.0 mm 0.00 in0.0 mm
07:19 AM 32.7°F0.4°C 3.3°F-15.9°C 28% 1.7 mph NE2.7 kmh NE 7.6 mph12.2 kmh 29.47 in998.0 mb 0.00 in0.0 mm 0.00 in0.0 mm 0.00 in0.0 mm
07:18 AM 32.7°F0.4°C 3.3°F-15.9°C 28% 1.8 mph NE2.9 kmh NE 7.6 mph12.2 kmh 29.47 in998.0 mb 0.00 in0.0 mm 0.00 in0.0 mm 0.00 in0.0 mm
07:17 AM 32.7°F0.4°C 3.3°F-15.9°C 28% 1.8 mph NE2.9 kmh NE 7.6 mph12.2 kmh 29.47 in998.0 mb 0.00 in0.0 mm 0.00 in0.0 mm 0.00 in0.0 mm
07:16 AM 32.7°F0.4°C 3.3°F-15.9°C 28% 1.9 mph NE3.1 kmh NE 7.6 mph12.2 kmh 29.47 in998.0 mb 0.00 in0.0 mm 0.00 in0.0 mm 0.00 in0.0 mm
07:15 AM 32.7°F0.4°C 3.3°F-15.9°C 28% 1.7 mph NE2.7 kmh NE 7.6 mph12.2 kmh 29.47 in998.0 mb 0.00 in0.0 mm 0.00 in0.0 mm 0.00 in0.0 mm
07:14 AM 32.7°F0.4°C 3.3°F-15.9°C 28% 1.7 mph NE2.7 kmh NE 7.6 mph12.2 kmh 29.47 in998.0 mb 0.00 in0.0 mm 0.00 in0.0 mm 0.00 in0.0 mm
07:13 AM 32.7°F0.4°C 3.3°F-15.9°C 28% 1.9 mph NE3.1 kmh NE 9.8 mph15.8 kmh 29.47 in998.0 mb 0.00 in0.0 mm 0.00 in0.0 mm 0.00 in0.0 mm
07:12 AM 32.7°F0.4°C 3.3°F-15.9°C 28% 2.3 mph NNE3.7 kmh NNE 13.0 mph20.9 kmh 29.46 in997.6 mb 0.00 in0.0 mm 0.00 in0.0 mm 0.00 in0.0 mm
07:11 AM 32.7°F0.4°C 3.3°F-15.9°C 28% 2.3 mph N3.7 kmh N 13.0 mph20.9 kmh 29.46 in997.6 mb 0.00 in0.0 mm 0.00 in0.0 mm 0.00 in0.0 mm
07:10 AM 32.7°F0.4°C 3.3°F-15.9°C 28% 2.4 mph NNE3.9 kmh NNE 13.0 mph20.9 kmh 29.47 in998.0 mb 0.00 in0.0 mm 0.00 in0.0 mm 0.00 in0.0 mm
07:09 AM 32.7°F0.4°C 3.3°F-15.9°C 28% 2.3 mph NNE3.7 kmh NNE 13.0 mph20.9 kmh 29.47 in998.0 mb 0.00 in0.0 mm 0.00 in0.0 mm 0.00 in0.0 mm
07:08 AM 32.7°F0.4°C 3.3°F-15.9°C 28% 2.1 mph NNE3.4 kmh NNE 13.0 mph20.9 kmh 29.47 in998.0 mb 0.00 in0.0 mm 0.00 in0.0 mm 0.00 in0.0 mm
07:07 AM 32.7°F0.4°C 3.3°F-15.9°C 28% 2.1 mph NNE3.4 kmh NNE 13.0 mph20.9 kmh 29.46 in997.6 mb 0.00 in0.0 mm 0.00 in0.0 mm 0.00 in0.0 mm
07:06 AM 32.7°F0.4°C 3.3°F-15.9°C 28% 2.1 mph NNE3.4 kmh NNE 13.0 mph20.9 kmh 29.46 in997.6 mb 0.00 in0.0 mm 0.00 in0.0 mm 0.00 in0.0 mm
07:05 AM 32.7°F0.4°C 3.3°F-15.9°C 28% 2.1 mph NE3.4 kmh NE 13.0 mph20.9 kmh 29.47 in998.0 mb 0.00 in0.0 mm 0.00 in0.0 mm 0.00 in0.0 mm
07:04 AM 32.7°F0.4°C 3.3°F-15.9°C 28% 2.3 mph NNE3.7 kmh NNE 13.0 mph20.9 kmh 29.47 in998.0 mb 0.00 in0.0 mm 0.00 in0.0 mm 0.00 in0.0 mm
07:03 AM 32.7°F0.4°C 3.3°F-15.9°C 28% 2.0 mph NNE3.2 kmh NNE 13.0 mph20.9 kmh 29.46 in997.6 mb 0.00 in0.0 mm 0.00 in0.0 mm 0.00 in0.0 mm
07:02 AM 32.7°F0.4°C 3.3°F-15.9°C 28% 1.4 mph NE2.3 kmh NE 13.0 mph20.9 kmh 29.46 in997.6 mb 0.00 in0.0 mm 0.00 in0.0 mm 0.00 in0.0 mm
07:01 AM 32.7°F0.4°C 3.3°F-15.9°C 28% 1.3 mph NE2.1 kmh NE 5.4 mph8.7 kmh 29.46 in997.6 mb 0.00 in0.0 mm 0.00 in0.0 mm 0.00 in0.0 mm
07:00 AM 32.7°F0.4°C 3.3°F-15.9°C 28% 1.3 mph NE2.1 kmh NE 5.4 mph8.7 kmh 29.46 in997.6 mb 0.00 in0.0 mm 0.00 in0.0 mm 0.00 in0.0 mm
06:59 AM 32.7°F0.4°C 3.3°F-15.9°C 28% 1.3 mph NE2.1 kmh NE 5.4 mph8.7 kmh 29.46 in997.6 mb 0.00 in0.0 mm 0.00 in0.0 mm 0.00 in0.0 mm
06:58 AM 32.7°F0.4°C 3.3°F-15.9°C 28% 1.5 mph ENE2.4 kmh ENE 6.0 mph9.7 kmh 29.46 in997.6 mb 0.00 in0.0 mm 0.00 in0.0 mm 0.00 in0.0 mm
06:57 AM 32.7°F0.4°C 3.3°F-15.9°C 28% 1.6 mph NE2.6 kmh NE 6.0 mph9.7 kmh 29.46 in997.6 mb 0.00 in0.0 mm 0.00 in0.0 mm 0.00 in0.0 mm
06:56 AM 32.7°F0.4°C 3.3°F-15.9°C 28% 1.6 mph N2.6 kmh N 6.0 mph9.7 kmh 29.46 in997.6 mb 0.00 in0.0 mm 0.00 in0.0 mm 0.00 in0.0 mm
06:55 AM 32.7°F0.4°C 3.3°F-15.9°C 28% 1.4 mph NNE2.3 kmh NNE 8.3 mph13.4 kmh 29.46 in997.6 mb 0.00 in0.0 mm 0.00 in0.0 mm 0.00 in0.0 mm
06:54 AM 32.7°F0.4°C 3.3°F-15.9°C 28% 1.6 mph NNW2.6 kmh NNW 8.3 mph13.4 kmh 29.46 in997.6 mb 0.00 in0.0 mm 0.00 in0.0 mm 0.00 in0.0 mm
06:53 AM 32.7°F0.4°C 3.3°F-15.9°C 28% 1.7 mph NW2.7 kmh NW 8.3 mph13.4 kmh 29.46 in997.6 mb 0.00 in0.0 mm 0.00 in0.0 mm 0.00 in0.0 mm
06:52 AM 32.7°F0.4°C 3.3°F-15.9°C 28% 1.7 mph NW2.7 kmh NW 8.3 mph13.4 kmh 29.46 in997.6 mb 0.00 in0.0 mm 0.00 in0.0 mm 0.00 in0.0 mm
06:51 AM 32.5°F0.3°C 3.1°F-16.1°C 28% 1.6 mph NW2.6 kmh NW 8.3 mph13.4 kmh 29.46 in997.6 mb 0.00 in0.0 mm 0.00 in0.0 mm 0.00 in0.0 mm
06:50 AM 32.5°F0.3°C 3.1°F-16.1°C 28% 1.4 mph WNW2.3 kmh WNW 8.3 mph13.4 kmh 29.46 in997.6 mb 0.00 in0.0 mm 0.00 in0.0 mm 0.00 in0.0 mm
06:49 AM 32.5°F0.3°C 3.1°F-16.1°C 28% 1.3 mph NW2.1 kmh NW 8.3 mph13.4 kmh 29.46 in997.6 mb 0.00 in0.0 mm 0.00 in0.0 mm 0.00 in0.0 mm
06:48 AM 32.5°F0.3°C 3.1°F-16.1°C 28% 1.2 mph NNW1.9 kmh NNW 8.3 mph13.4 kmh 29.46 in997.6 mb 0.00 in0.0 mm 0.00 in0.0 mm 0.00 in0.0 mm
06:47 AM 32.5°F0.3°C 3.1°F-16.1°C 28% 1.2 mph N1.9 kmh N 8.3 mph13.4 kmh 29.46 in997.6 mb 0.00 in0.0 mm 0.00 in0.0 mm 0.00 in0.0 mm
06:46 AM 32.5°F0.3°C 2.3°F-16.5°C 27% 1.1 mph N1.8 kmh N 8.3 mph13.4 kmh 29.46 in997.6 mb 0.00 in0.0 mm 0.00 in0.0 mm 0.00 in0.0 mm
06:45 AM 32.5°F0.3°C 2.3°F-16.5°C 27% 1.2 mph NNE1.9 kmh NNE 8.3 mph13.4 kmh 29.46 in997.6 mb 0.00 in0.0 mm 0.00 in0.0 mm 0.00 in0.0 mm
06:44 AM 32.5°F0.3°C 2.3°F-16.5°C 27% 0.9 mph ENE1.4 kmh ENE 8.3 mph13.4 kmh 29.47 in998.0 mb 0.00 in0.0 mm 0.00 in0.0 mm 0.00 in0.0 mm
06:43 AM 32.5°F0.3°C 2.3°F-16.5°C 27% 1.0 mph NE1.6 kmh NE 6.0 mph9.7 kmh 29.47 in998.0 mb 0.00 in0.0 mm 0.00 in0.0 mm 0.00 in0.0 mm
06:42 AM 32.5°F0.3°C 2.3°F-16.5°C 27% 1.1 mph NNE1.8 kmh NNE 6.0 mph9.7 kmh 29.46 in997.6 mb 0.00 in0.0 mm 0.00 in0.0 mm 0.00 in0.0 mm
06:41 AM 32.5°F0.3°C 2.3°F-16.5°C 27% 1.4 mph N2.3 kmh N 6.0 mph9.7 kmh 29.46 in997.6 mb 0.00 in0.0 mm 0.00 in0.0 mm 0.00 in0.0 mm
06:40 AM 32.5°F0.3°C 2.3°F-16.5°C 27% 1.5 mph N2.4 kmh N 6.0 mph9.7 kmh 29.47 in998.0 mb 0.00 in0.0 mm 0.00 in0.0 mm 0.00 in0.0 mm
06:39 AM 32.5°F0.3°C 2.3°F-16.5°C 27% 1.5 mph N2.4 kmh N 6.0 mph9.7 kmh 29.46 in997.6 mb 0.00 in0.0 mm 0.00 in0.0 mm 0.00 in0.0 mm
06:38 AM 32.5°F0.3°C 2.3°F-16.5°C 27% 1.6 mph N2.6 kmh N 6.0 mph9.7 kmh 29.46 in997.6 mb 0.00 in0.0 mm 0.00 in0.0 mm 0.00 in0.0 mm
06:37 AM 32.5°F0.3°C 2.3°F-16.5°C 27% 1.5 mph NNW2.4 kmh NNW 5.4 mph8.7 kmh 29.47 in998.0 mb 0.00 in0.0 mm 0.00 in0.0 mm 0.00 in0.0 mm
06:36 AM 32.5°F0.3°C 2.3°F-16.5°C 27% 1.6 mph NNW2.6 kmh NNW 5.4 mph8.7 kmh 29.46 in997.6 mb 0.00 in0.0 mm 0.00 in0.0 mm 0.00 in0.0 mm
06:35 AM 32.5°F0.3°C 2.3°F-16.5°C 27% 1.7 mph NNW2.7 kmh NNW 5.4 mph8.7 kmh 29.46 in997.6 mb 0.00 in0.0 mm 0.00 in0.0 mm 0.00 in0.0 mm
06:34 AM 32.5°F0.3°C 2.3°F-16.5°C 27% 1.8 mph NNW2.9 kmh NNW 5.4 mph8.7 kmh 29.46 in997.6 mb 0.00 in0.0 mm 0.00 in0.0 mm 0.00 in0.0 mm
06:33 AM 32.5°F0.3°C 2.3°F-16.5°C 27% 1.6 mph NNW2.6 kmh NNW 5.4 mph8.7 kmh 29.46 in997.6 mb 0.00 in0.0 mm 0.00 in0.0 mm 0.00 in0.0 mm
06:32 AM 32.5°F0.3°C 2.3°F-16.5°C 27% 1.4 mph NNW2.3 kmh NNW 5.4 mph8.7 kmh 29.46 in997.6 mb 0.00 in0.0 mm 0.00 in0.0 mm 0.00 in0.0 mm
06:31 AM 32.5°F0.3°C 2.3°F-16.5°C 27% 1.2 mph NNW1.9 kmh NNW 5.4 mph8.7 kmh 29.46 in997.6 mb 0.00 in0.0 mm 0.00 in0.0 mm 0.00 in0.0 mm
06:30 AM 32.5°F0.3°C 2.3°F-16.5°C 27% 1.2 mph NNW1.9 kmh NNW 5.4 mph8.7 kmh 29.46 in997.6 mb 0.00 in0.0 mm 0.00 in0.0 mm 0.00 in0.0 mm
06:29 AM 32.5°F0.3°C 2.3°F-16.5°C 27% 1.3 mph NNW2.1 kmh NNW 5.4 mph8.7 kmh 29.46 in997.6 mb 0.00 in0.0 mm 0.00 in0.0 mm 0.00 in0.0 mm
06:28 AM 32.5°F0.3°C 2.3°F-16.5°C 27% 1.3 mph N2.1 kmh N 5.4 mph8.7 kmh 29.46 in997.6 mb 0.00 in0.0 mm 0.00 in0.0 mm 0.00 in0.0 mm
06:27 AM 32.5°F0.3°C 2.3°F-16.5°C 27% 1.3 mph N2.1 kmh N 5.4 mph8.7 kmh 29.46 in997.6 mb 0.00 in0.0 mm 0.00 in0.0 mm 0.00 in0.0 mm
06:26 AM 32.5°F0.3°C 2.3°F-16.5°C 27% 1.3 mph N2.1 kmh N 5.4 mph8.7 kmh 29.46 in997.6 mb 0.00 in0.0 mm 0.00 in0.0 mm 0.00 in0.0 mm
06:25 AM 32.5°F0.3°C 2.3°F-16.5°C 27% 1.3 mph N2.1 kmh N 4.5 mph7.2 kmh 29.46 in997.6 mb 0.00 in0.0 mm 0.00 in0.0 mm 0.00 in0.0 mm
06:24 AM 32.5°F0.3°C 2.3°F-16.5°C 27% 1.2 mph N1.9 kmh N 4.5 mph7.2 kmh 29.46 in997.6 mb 0.00 in0.0 mm 0.00 in0.0 mm 0.00 in0.0 mm
06:23 AM 32.5°F0.3°C 2.3°F-16.5°C 27% 1.1 mph N1.8 kmh N 4.5 mph7.2 kmh 29.46 in997.6 mb 0.00 in0.0 mm 0.00 in0.0 mm 0.00 in0.0 mm
06:22 AM 32.5°F0.3°C 2.3°F-16.5°C 27% 1.2 mph N1.9 kmh N 4.5 mph7.2 kmh 29.46 in997.6 mb 0.00 in0.0 mm 0.00 in0.0 mm 0.00 in0.0 mm
06:21 AM 32.5°F0.3°C 2.3°F-16.5°C 27% 1.3 mph N2.1 kmh N 4.5 mph7.2 kmh 29.47 in998.0 mb 0.00 in0.0 mm 0.00 in0.0 mm 0.00 in0.0 mm
06:20 AM 32.5°F0.3°C 2.3°F-16.5°C 27% 1.2 mph N1.9 kmh N 4.5 mph7.2 kmh 29.46 in997.6 mb 0.00 in0.0 mm 0.00 in0.0 mm 0.00 in0.0 mm
06:19 AM 32.5°F0.3°C 2.3°F-16.5°C 27% 1.3 mph NNE2.1 kmh NNE 6.0 mph9.7 kmh 29.46 in997.6 mb 0.00 in0.0 mm 0.00 in0.0 mm 0.00 in0.0 mm
06:18 AM 32.5°F0.3°C 2.3°F-16.5°C 27% 1.3 mph NE2.1 kmh NE 6.0 mph9.7 kmh 29.46 in997.6 mb 0.00 in0.0 mm 0.00 in0.0 mm 0.00 in0.0 mm
06:17 AM 32.5°F0.3°C 2.3°F-16.5°C 27% 1.2 mph NE1.9 kmh NE 6.0 mph9.7 kmh 29.46 in997.6 mb 0.00 in0.0 mm 0.00 in0.0 mm 0.00 in0.0 mm
06:16 AM 32.5°F0.3°C 2.3°F-16.5°C 27% 1.3 mph NE2.1 kmh NE 6.0 mph9.7 kmh 29.47 in998.0 mb 0.00 in0.0 mm 0.00 in0.0 mm 0.00 in0.0 mm
06:15 AM 32.5°F0.3°C 2.3°F-16.5°C 27% 1.4 mph E2.3 kmh E 6.0 mph9.7 kmh 29.47 in998.0 mb 0.00 in0.0 mm 0.00 in0.0 mm 0.00 in0.0 mm
06:14 AM 32.5°F0.3°C 2.3°F-16.5°C 27% 1.5 mph E2.4 kmh E 6.0 mph9.7 kmh 29.47 in998.0 mb 0.00 in0.0 mm 0.00 in0.0 mm 0.00 in0.0 mm
06:13 AM 32.5°F0.3°C 2.3°F-16.5°C 27% 1.5 mph E2.4 kmh E 6.0 mph9.7 kmh 29.47 in998.0 mb 0.00 in0.0 mm 0.00 in0.0 mm 0.00 in0.0 mm
06:12 AM 32.5°F0.3°C 2.3°F-16.5°C 27% 1.5 mph ENE2.4 kmh ENE 6.0 mph9.7 kmh 29.47 in998.0 mb 0.00 in0.0 mm 0.00 in0.0 mm 0.00 in0.0 mm
06:11 AM 32.5°F0.3°C 2.3°F-16.5°C 27% 1.4 mph ENE2.3 kmh ENE 6.0 mph9.7 kmh 29.47 in998.0 mb 0.00 in0.0 mm 0.00 in0.0 mm 0.00 in0.0 mm
06:10 AM 32.5°F0.3°C 2.3°F-16.5°C 27% 1.5 mph E2.4 kmh E 6.0 mph9.7 kmh 29.46 in997.6 mb 0.00 in0.0 mm 0.00 in0.0 mm 0.00 in0.0 mm
06:09 AM 32.5°F0.3°C 2.3°F-16.5°C 27% 1.7 mph ENE2.7 kmh ENE 9.2 mph14.8 kmh 29.47 in998.0 mb 0.00 in0.0 mm 0.00 in0.0 mm 0.00 in0.0 mm
06:08 AM 32.5°F0.3°C 2.3°F-16.5°C 27% 2.1 mph ENE3.4 kmh ENE 9.2 mph14.8 kmh 29.46 in997.6 mb 0.00 in0.0 mm 0.00 in0.0 mm 0.00 in0.0 mm
06:07 AM 32.5°F0.3°C 2.3°F-16.5°C 27% 2.3 mph NE3.7 kmh NE 9.2 mph14.8 kmh 29.47 in998.0 mb 0.00 in0.0 mm 0.00 in0.0 mm 0.00 in0.0 mm
06:06 AM 32.5°F0.3°C 2.3°F-16.5°C 27% 2.1 mph NNE3.4 kmh NNE 9.2 mph14.8 kmh 29.46 in997.6 mb 0.00 in0.0 mm 0.00 in0.0 mm 0.00 in0.0 mm
06:05 AM 32.5°F0.3°C 2.3°F-16.5°C 27% 1.9 mph NNE3.1 kmh NNE 9.2 mph14.8 kmh 29.47 in998.0 mb 0.00 in0.0 mm 0.00 in0.0 mm 0.00 in0.0 mm
06:04 AM 32.5°F0.3°C 2.3°F-16.5°C 27% 1.9 mph NE3.1 kmh NE 9.2 mph14.8 kmh 29.47 in998.0 mb 0.00 in0.0 mm 0.00 in0.0 mm 0.00 in0.0 mm
06:03 AM 32.5°F0.3°C 2.3°F-16.5°C 27% 2.0 mph NE3.2 kmh NE 9.2 mph14.8 kmh 29.47 in998.0 mb 0.00 in0.0 mm 0.00 in0.0 mm 0.00 in0.0 mm
06:02 AM 32.5°F0.3°C 2.3°F-16.5°C 27% 2.0 mph ENE3.2 kmh ENE 11.4 mph18.3 kmh 29.47 in998.0 mb 0.00 in0.0 mm 0.00 in0.0 mm 0.00 in0.0 mm
06:01 AM 32.5°F0.3°C 2.3°F-16.5°C 27% 2.1 mph ENE3.4 kmh ENE 11.4 mph18.3 kmh 29.47 in998.0 mb 0.00 in0.0 mm 0.00 in0.0 mm 0.00 in0.0 mm
06:00 AM 32.5°F0.3°C 2.3°F-16.5°C 27% 2.1 mph ENE3.4 kmh ENE 11.4 mph18.3 kmh 29.47 in998.0 mb 0.00 in0.0 mm 0.00 in0.0 mm 0.00 in0.0 mm
05:59 AM 32.5°F0.3°C 2.3°F-16.5°C 27% 1.7 mph E2.7 kmh E 11.4 mph18.3 kmh 29.47 in998.0 mb 0.00 in0.0 mm 0.00 in0.0 mm 0.00 in0.0 mm
05:58 AM 32.5°F0.3°C 2.3°F-16.5°C 27% 1.2 mph ENE1.9 kmh ENE 11.4 mph18.3 kmh 29.47 in998.0 mb 0.00 in0.0 mm 0.00 in0.0 mm 0.00 in0.0 mm
05:57 AM 32.5°F0.3°C 2.3°F-16.5°C 27% 1.0 mph SE1.6 kmh SE 11.4 mph18.3 kmh 29.47 in998.0 mb 0.00 in0.0 mm 0.00 in0.0 mm 0.00 in0.0 mm
05:56 AM 32.5°F0.3°C 2.3°F-16.5°C 27% 1.0 mph SE1.6 kmh SE 11.4 mph18.3 kmh 29.46 in997.6 mb 0.00 in0.0 mm 0.00 in0.0 mm 0.00 in0.0 mm
05:55 AM 32.5°F0.3°C 2.3°F-16.5°C 27% 1.0 mph SE1.6 kmh SE 11.4 mph18.3 kmh 29.47 in998.0 mb 0.00 in0.0 mm 0.00 in0.0 mm 0.00 in0.0 mm
05:54 AM 32.5°F0.3°C 2.3°F-16.5°C 27% 0.9 mph SSE1.4 kmh SSE 11.4 mph18.3 kmh 29.47 in998.0 mb 0.00 in0.0 mm 0.00 in0.0 mm 0.00 in0.0 mm
05:53 AM 32.5°F0.3°C 2.3°F-16.5°C 27% 0.9 mph SW1.4 kmh SW 11.4 mph18.3 kmh 29.47 in998.0 mb 0.00 in0.0 mm 0.00 in0.0 mm 0.00 in0.0 mm
05:52 AM 32.5°F0.3°C 2.3°F-16.5°C 27% 0.9 mph WNW1.4 kmh WNW 11.4 mph18.3 kmh 29.47 in998.0 mb 0.00 in0.0 mm 0.00 in0.0 mm 0.00 in0.0 mm
05:51 AM 32.5°F0.3°C 2.3°F-16.5°C 27% 0.9 mph NW1.4 kmh NW 8.3 mph13.4 kmh 29.47 in998.0 mb 0.00 in0.0 mm 0.00 in0.0 mm 0.00 in0.0 mm
05:50 AM 32.5°F0.3°C 2.3°F-16.5°C 27% 1.0 mph NW1.6 kmh NW 8.3 mph13.4 kmh 29.47 in998.0 mb 0.00 in0.0 mm 0.00 in0.0 mm 0.00 in0.0 mm
05:49 AM 32.5°F0.3°C 2.3°F-16.5°C 27% 1.1 mph NW1.8 kmh NW 8.3 mph13.4 kmh 29.47 in998.0 mb 0.00 in0.0 mm 0.00 in0.0 mm 0.00 in0.0 mm
05:48 AM 32.5°F0.3°C 2.3°F-16.5°C 27% 1.2 mph NW1.9 kmh NW 8.3 mph13.4 kmh 29.47 in998.0 mb 0.00 in0.0 mm 0.00 in0.0 mm 0.00 in0.0 mm
05:47 AM 32.5°F0.3°C 2.3°F-16.5°C 27% 1.2 mph NW1.9 kmh NW 8.3 mph13.4 kmh 29.46 in997.6 mb 0.00 in0.0 mm 0.00 in0.0 mm 0.00 in0.0 mm
05:46 AM 32.5°F0.3°C 2.3°F-16.5°C 27% 1.3 mph NW2.1 kmh NW 9.2 mph14.8 kmh 29.47 in998.0 mb 0.00 in0.0 mm 0.00 in0.0 mm 0.00 in0.0 mm
05:45 AM 32.5°F0.3°C 2.3°F-16.5°C 27% 1.8 mph N2.9 kmh N 9.2 mph14.8 kmh 29.46 in997.6 mb 0.00 in0.0 mm 0.00 in0.0 mm 0.00 in0.0 mm
05:44 AM 32.5°F0.3°C 2.3°F-16.5°C 27% 1.9 mph NE3.1 kmh NE 9.2 mph14.8 kmh 29.47 in998.0 mb 0.00 in0.0 mm 0.00 in0.0 mm 0.00 in0.0 mm
05:43 AM 32.4°F0.2°C 2.2°F-16.6°C 27% 2.0 mph NE3.2 kmh NE 9.2 mph14.8 kmh 29.46 in997.6 mb 0.00 in0.0 mm 0.00 in0.0 mm 0.00 in0.0 mm
05:42 AM 32.4°F0.2°C 2.2°F-16.6°C 27% 2.0 mph E3.2 kmh E 9.2 mph14.8 kmh 29.46 in997.6 mb 0.00 in0.0 mm 0.00 in0.0 mm 0.00 in0.0 mm
05:41 AM 32.4°F0.2°C 2.2°F-16.6°C 27% 2.0 mph E3.2 kmh E 9.2 mph14.8 kmh 29.46 in997.6 mb 0.00 in0.0 mm 0.00 in0.0 mm 0.00 in0.0 mm
05:40 AM 32.4°F0.2°C 2.2°F-16.6°C 27% 2.1 mph E3.4 kmh E 9.2 mph14.8 kmh 29.47 in998.0 mb 0.00 in0.0 mm 0.00 in0.0 mm 0.00 in0.0 mm
05:39 AM 32.4°F0.2°C 2.2°F-16.6°C 27% 1.9 mph ESE3.1 kmh ESE 9.2 mph14.8 kmh 29.46 in997.6 mb 0.00 in0.0 mm 0.00 in0.0 mm 0.00 in0.0 mm
05:38 AM 32.4°F0.2°C 2.2°F-16.6°C 27% 1.7 mph E2.7 kmh E 9.2 mph14.8 kmh 29.46 in997.6 mb 0.00 in0.0 mm 0.00 in0.0 mm 0.00 in0.0 mm
05:37 AM 32.4°F0.2°C 2.2°F-16.6°C 27% 1.7 mph E2.7 kmh E 9.2 mph14.8 kmh 29.46 in997.6 mb 0.00 in0.0 mm 0.00 in0.0 mm 0.00 in0.0 mm
05:36 AM 32.4°F0.2°C 2.2°F-16.6°C 27% 1.5 mph NE2.4 kmh NE 9.2 mph14.8 kmh 29.46 in997.6 mb 0.00 in0.0 mm 0.00 in0.0 mm 0.00 in0.0 mm
05:35 AM 32.5°F0.3°C 2.3°F-16.5°C 27% 1.4 mph NNE2.3 kmh NNE 9.2 mph14.8 kmh 29.46 in997.6 mb 0.00 in0.0 mm 0.00 in0.0 mm 0.00 in0.0 mm
05:34 AM 32.4°F0.2°C 2.2°F-16.6°C 27% 1.6 mph N2.6 kmh N 8.3 mph13.4 kmh 29.46 in997.6 mb 0.00 in0.0 mm 0.00 in0.0 mm 0.00 in0.0 mm
05:33 AM 32.5°F0.3°C 2.3°F-16.5°C 27% 1.6 mph N2.6 kmh N 8.3 mph13.4 kmh 29.46 in997.6 mb 0.00 in0.0 mm 0.00 in0.0 mm 0.00 in0.0 mm
05:32 AM 32.5°F0.3°C 2.3°F-16.5°C 27% 1.5 mph N2.4 kmh N 8.3 mph13.4 kmh 29.46 in997.6 mb 0.00 in0.0 mm 0.00 in0.0 mm 0.00 in0.0 mm
05:31 AM 32.5°F0.3°C 2.3°F-16.5°C 27% 1.5 mph N2.4 kmh N 8.3 mph13.4 kmh 29.46 in997.6 mb 0.00 in0.0 mm 0.00 in0.0 mm 0.00 in0.0 mm
05:30 AM 32.5°F0.3°C 2.3°F-16.5°C 27% 1.5 mph NNW2.4 kmh NNW 8.3 mph13.4 kmh 29.46 in997.6 mb 0.00 in0.0 mm 0.00 in0.0 mm 0.00 in0.0 mm
05:29 AM 32.4°F0.2°C 2.2°F-16.6°C 27% 1.9 mph N3.1 kmh N 8.3 mph13.4 kmh 29.46 in997.6 mb 0.00 in0.0 mm 0.00 in0.0 mm 0.00 in0.0 mm
05:28 AM 32.4°F0.2°C 2.2°F-16.6°C 27% 2.4 mph NNE3.9 kmh NNE 9.2 mph14.8 kmh 29.46 in997.6 mb 0.00 in0.0 mm 0.00 in0.0 mm 0.00 in0.0 mm
05:27 AM 32.4°F0.2°C 2.2°F-16.6°C 27% 2.8 mph NE4.5 kmh NE 9.2 mph14.8 kmh 29.46 in997.6 mb 0.00 in0.0 mm 0.00 in0.0 mm 0.00 in0.0 mm
05:26 AM 32.4°F0.2°C 2.2°F-16.6°C 27% 3.2 mph NE5.1 kmh NE 9.2 mph14.8 kmh 29.46 in997.6 mb 0.00 in0.0 mm 0.00 in0.0 mm 0.00 in0.0 mm
05:25 AM 32.5°F0.3°C 2.3°F-16.5°C 27% 3.1 mph NE5.0 kmh NE 9.2 mph14.8 kmh 29.46 in997.6 mb 0.00 in0.0 mm 0.00 in0.0 mm 0.00 in0.0 mm
05:24 AM 32.5°F0.3°C 2.3°F-16.5°C 27% 2.6 mph ENE4.2 kmh ENE 9.2 mph14.8 kmh 29.46 in997.6 mb 0.00 in0.0 mm 0.00 in0.0 mm 0.00 in0.0 mm
05:23 AM 32.4°F0.2°C 2.2°F-16.6°C 27% 2.4 mph ENE3.9 kmh ENE 9.2 mph14.8 kmh 29.46 in997.6 mb 0.00 in0.0 mm 0.00 in0.0 mm 0.00 in0.0 mm
05:22 AM 32.5°F0.3°C 1.5°F-16.9°C 26% 2.5 mph ENE4.0 kmh ENE 9.2 mph14.8 kmh 29.46 in997.6 mb 0.00 in0.0 mm 0.00 in0.0 mm 0.00 in0.0 mm
05:21 AM 32.4°F0.2°C 2.2°F-16.6°C 27% 2.4 mph ENE3.9 kmh ENE 9.2 mph14.8 kmh 29.46 in997.6 mb 0.00 in0.0 mm 0.00 in0.0 mm 0.00 in0.0 mm
05:20 AM 32.4°F0.2°C 2.2°F-16.6°C 27% 2.3 mph ENE3.7 kmh ENE 9.2 mph14.8 kmh 29.46 in997.6 mb 0.00 in0.0 mm 0.00 in0.0 mm 0.00 in0.0 mm
05:19 AM 32.5°F0.3°C 2.3°F-16.5°C 27% 2.4 mph ENE3.9 kmh ENE 9.2 mph14.8 kmh 29.46 in997.6 mb 0.00 in0.0 mm 0.00 in0.0 mm 0.00 in0.0 mm
05:18 AM 32.5°F0.3°C 2.3°F-16.5°C 27% 2.2 mph E3.5 kmh E 10.7 mph17.2 kmh 29.46 in997.6 mb 0.00 in0.0 mm 0.00 in0.0 mm 0.00 in0.0 mm
05:17 AM 32.5°F0.3°C 2.3°F-16.5°C 27% 1.7 mph ENE2.7 kmh ENE 10.7 mph17.2 kmh 29.46 in997.6 mb 0.00 in0.0 mm 0.00 in0.0 mm 0.00 in0.0 mm
05:16 AM 32.5°F0.3°C 2.3°F-16.5°C 27% 1.3 mph NE2.1 kmh NE 10.7 mph17.2 kmh 29.46 in997.6 mb 0.00 in0.0 mm 0.00 in0.0 mm 0.00 in0.0 mm
05:15 AM 32.5°F0.3°C 2.3°F-16.5°C 27% 1.3 mph NNE2.1 kmh NNE 10.7 mph17.2 kmh 29.46 in997.6 mb 0.00 in0.0 mm 0.00 in0.0 mm 0.00 in0.0 mm
05:14 AM 32.5°F0.3°C 2.3°F-16.5°C 27% 1.7 mph N2.7 kmh N 10.7 mph17.2 kmh 29.46 in997.6 mb 0.00 in0.0 mm 0.00 in0.0 mm 0.00 in0.0 mm
05:13 AM 32.5°F0.3°C 2.3°F-16.5°C 27% 1.8 mph N2.9 kmh N 10.7 mph17.2 kmh 29.46 in997.6 mb 0.00 in0.0 mm 0.00 in0.0 mm 0.00 in0.0 mm
05:12 AM 32.4°F0.2°C 2.2°F-16.6°C 27% 1.9 mph N3.1 kmh N 10.7 mph17.2 kmh 29.46 in997.6 mb 0.00 in0.0 mm 0.00 in0.0 mm 0.00 in0.0 mm
05:11 AM 32.5°F0.3°C 2.3°F-16.5°C 27% 2.0 mph NNE3.2 kmh NNE 10.7 mph17.2 kmh 29.46 in997.6 mb 0.00 in0.0 mm 0.00 in0.0 mm 0.00 in0.0 mm
05:10 AM 32.5°F0.3°C 2.3°F-16.5°C 27% 2.1 mph NNE3.4 kmh NNE 10.7 mph17.2 kmh 29.46 in997.6 mb 0.00 in0.0 mm 0.00 in0.0 mm 0.00 in0.0 mm
05:09 AM 32.5°F0.3°C 2.3°F-16.5°C 27% 1.9 mph NE3.1 kmh NE 10.7 mph17.2 kmh 29.46 in997.6 mb 0.00 in0.0 mm 0.00 in0.0 mm 0.00 in0.0 mm
05:08 AM 32.5°F0.3°C 2.3°F-16.5°C 27% 1.9 mph NNE3.1 kmh NNE 14.5 mph23.3 kmh 29.46 in997.6 mb 0.00 in0.0 mm 0.00 in0.0 mm 0.00 in0.0 mm
05:07 AM 32.4°F0.2°C 2.2°F-16.6°C 27% 2.1 mph NNE3.4 kmh NNE 14.5 mph23.3 kmh 29.46 in997.6 mb 0.00 in0.0 mm 0.00 in0.0 mm 0.00 in0.0 mm
05:06 AM 32.4°F0.2°C 2.2°F-16.6°C 27% 2.1 mph NNE3.4 kmh NNE 14.5 mph23.3 kmh 29.46 in997.6 mb 0.00 in0.0 mm 0.00 in0.0 mm 0.00 in0.0 mm
05:05 AM 32.4°F0.2°C 2.2°F-16.6°C 27% 2.5 mph N4.0 kmh N 15.2 mph24.5 kmh 29.46 in997.6 mb 0.00 in0.0 mm 0.00 in0.0 mm 0.00 in0.0 mm
05:04 AM 32.4°F0.2°C 2.2°F-16.6°C 27% 2.4 mph NNE3.9 kmh NNE 15.2 mph24.5 kmh 29.46 in997.6 mb 0.00 in0.0 mm 0.00 in0.0 mm 0.00 in0.0 mm
05:03 AM 32.4°F0.2°C 2.2°F-16.6°C 27% 2.5 mph NE4.0 kmh NE 15.2 mph24.5 kmh 29.46 in997.6 mb 0.00 in0.0 mm 0.00 in0.0 mm 0.00 in0.0 mm
05:02 AM 32.4°F0.2°C 2.9°F-16.2°C 28% 2.4 mph NNE3.9 kmh NNE 15.2 mph24.5 kmh 29.46 in997.6 mb 0.00 in0.0 mm 0.00 in0.0 mm 0.00 in0.0 mm
05:01 AM 32.4°F0.2°C 2.9°F-16.2°C 28% 2.3 mph NNE3.7 kmh NNE 15.2 mph24.5 kmh 29.46 in997.6 mb 0.00 in0.0 mm 0.00 in0.0 mm 0.00 in0.0 mm
05:00 AM 32.4°F0.2°C 2.9°F-16.2°C 28% 2.2 mph NNE3.5 kmh NNE 15.2 mph24.5 kmh 29.46 in997.6 mb 0.00 in0.0 mm 0.00 in0.0 mm 0.00 in0.0 mm
04:59 AM 32.4°F0.2°C 2.9°F-16.2°C 28% 2.3 mph N3.7 kmh N 15.2 mph24.5 kmh 29.46 in997.6 mb 0.00 in0.0 mm 0.00 in0.0 mm 0.00 in0.0 mm
04:58 AM 32.4°F0.2°C 2.9°F-16.2°C 28% 1.9 mph W3.1 kmh W 15.2 mph24.5 kmh 29.46 in997.6 mb 0.00 in0.0 mm 0.00 in0.0 mm 0.00 in0.0 mm
04:57 AM 32.4°F0.2°C 2.9°F-16.2°C 28% 1.8 mph WSW2.9 kmh WSW 15.2 mph24.5 kmh 29.46 in997.6 mb 0.00 in0.0 mm 0.00 in0.0 mm 0.00 in0.0 mm
04:56 AM 32.4°F0.2°C 2.9°F-16.2°C 28% 2.1 mph WSW3.4 kmh WSW 15.2 mph24.5 kmh 29.46 in997.6 mb 0.00 in0.0 mm 0.00 in0.0 mm 0.00 in0.0 mm
04:55 AM 32.4°F0.2°C 2.9°F-16.2°C 28% 2.1 mph WNW3.4 kmh WNW 15.2 mph24.5 kmh 29.46 in997.6 mb 0.00 in0.0 mm 0.00 in0.0 mm 0.00 in0.0 mm
04:54 AM 32.4°F0.2°C 2.9°F-16.2°C 28% 2.0 mph NW3.2 kmh NW 9.2 mph14.8 kmh 29.46 in997.6 mb 0.00 in0.0 mm 0.00 in0.0 mm 0.00 in0.0 mm
04:53 AM 32.4°F0.2°C 2.9°F-16.2°C 28% 2.0 mph NW3.2 kmh NW 9.8 mph15.8 kmh 29.46 in997.6 mb 0.00 in0.0 mm 0.00 in0.0 mm 0.00 in0.0 mm
04:52 AM 32.4°F0.2°C 2.9°F-16.2°C 28% 2.2 mph NW3.5 kmh NW 9.8 mph15.8 kmh 29.46 in997.6 mb 0.00 in0.0 mm 0.00 in0.0 mm 0.00 in0.0 mm
04:51 AM 32.4°F0.2°C 2.9°F-16.2°C 28% 2.2 mph NW3.5 kmh NW 9.8 mph15.8 kmh 29.46 in997.6 mb 0.00 in0.0 mm 0.00 in0.0 mm 0.00 in0.0 mm
04:50 AM 32.4°F0.2°C 2.9°F-16.2°C 28% 2.3 mph NW3.7 kmh NW 9.8 mph15.8 kmh 29.46 in997.6 mb 0.00 in0.0 mm 0.00 in0.0 mm 0.00 in0.0 mm
04:49 AM 32.4°F0.2°C 2.9°F-16.2°C 28% 2.2 mph NW3.5 kmh NW 9.8 mph15.8 kmh 29.46 in997.6 mb 0.00 in0.0 mm 0.00 in0.0 mm 0.00 in0.0 mm
04:48 AM 32.4°F0.2°C 2.9°F-16.2°C 28% 2.1 mph NNW3.4 kmh NNW 9.8 mph15.8 kmh 29.46 in997.6 mb 0.00 in0.0 mm 0.00 in0.0 mm 0.00 in0.0 mm
04:47 AM 32.4°F0.2°C 2.9°F-16.2°C 28% 2.2 mph N3.5 kmh N 9.8 mph15.8 kmh 29.46 in997.6 mb 0.00 in0.0 mm 0.00 in0.0 mm 0.00 in0.0 mm
04:46 AM 32.4°F0.2°C 2.9°F-16.2°C 28% 1.9 mph NE3.1 kmh NE 9.8 mph15.8 kmh 29.46 in997.6 mb 0.00 in0.0 mm 0.00 in0.0 mm 0.00 in0.0 mm
04:45 AM 32.4°F0.2°C 2.9°F-16.2°C 28% 1.7 mph NE2.7 kmh NE 9.8 mph15.8 kmh 29.46 in997.6 mb 0.00 in0.0 mm 0.00 in0.0 mm 0.00 in0.0 mm
04:44 AM 32.4°F0.2°C 2.9°F-16.2°C 28% 1.6 mph NE2.6 kmh NE 9.8 mph15.8 kmh 29.45 in997.3 mb 0.00 in0.0 mm 0.00 in0.0 mm 0.00 in0.0 mm
04:43 AM 32.4°F0.2°C 2.2°F-16.6°C 27% 1.3 mph NNE2.1 kmh NNE 9.2 mph14.8 kmh 29.45 in997.3 mb 0.00 in0.0 mm 0.00 in0.0 mm 0.00 in0.0 mm
04:42 AM 32.4°F0.2°C 2.2°F-16.6°C 27% 1.1 mph NE1.8 kmh NE 6.0 mph9.7 kmh 29.45 in997.3 mb 0.00 in0.0 mm 0.00 in0.0 mm 0.00 in0.0 mm
04:41 AM 32.4°F0.2°C 2.2°F-16.6°C 27% 1.4 mph N2.3 kmh N 9.2 mph14.8 kmh 29.45 in997.3 mb 0.00 in0.0 mm 0.00 in0.0 mm 0.00 in0.0 mm
04:40 AM 32.4°F0.2°C 2.2°F-16.6°C 27% 1.4 mph N2.3 kmh N 9.2 mph14.8 kmh 29.46 in997.6 mb 0.00 in0.0 mm 0.00 in0.0 mm 0.00 in0.0 mm
04:39 AM 32.4°F0.2°C 2.2°F-16.6°C 27% 1.5 mph NNW2.4 kmh NNW 9.2 mph14.8 kmh 29.45 in997.3 mb 0.00 in0.0 mm 0.00 in0.0 mm 0.00 in0.0 mm
04:38 AM 32.4°F0.2°C 2.2°F-16.6°C 27% 1.7 mph NW2.7 kmh NW 9.2 mph14.8 kmh 29.45 in997.3 mb 0.00 in0.0 mm 0.00 in0.0 mm 0.00 in0.0 mm
04:37 AM 32.4°F0.2°C 2.2°F-16.6°C 27% 1.8 mph N2.9 kmh N 9.2 mph14.8 kmh 29.45 in997.3 mb 0.00 in0.0 mm 0.00 in0.0 mm 0.00 in0.0 mm
04:36 AM 32.4°F0.2°C 2.2°F-16.6°C 27% 1.8 mph NNW2.9 kmh NNW 9.2 mph14.8 kmh 29.45 in997.3 mb 0.00 in0.0 mm 0.00 in0.0 mm 0.00 in0.0 mm
04:35 AM 32.4°F0.2°C 2.2°F-16.6°C 27% 1.7 mph NNW2.7 kmh NNW 9.2 mph14.8 kmh 29.45 in997.3 mb 0.00 in0.0 mm 0.00 in0.0 mm 0.00 in0.0 mm
04:34 AM 32.5°F0.3°C 3.1°F-16.1°C 28% 1.8 mph NNW2.9 kmh NNW 17.4 mph28.0 kmh 29.45 in997.3 mb 0.00 in0.0 mm 0.00 in0.0 mm 0.00 in0.0 mm
04:33 AM 32.4°F0.2°C 2.2°F-16.6°C 27% 2.1 mph NW3.4 kmh NW 17.4 mph28.0 kmh 29.45 in997.3 mb 0.00 in0.0 mm 0.00 in0.0 mm 0.00 in0.0 mm
04:32 AM 32.4°F0.2°C 2.2°F-16.6°C 27% 2.0 mph NW3.2 kmh NW 17.4 mph28.0 kmh 29.45 in997.3 mb 0.00 in0.0 mm 0.00 in0.0 mm 0.00 in0.0 mm
04:31 AM 32.4°F0.2°C 2.2°F-16.6°C 27% 1.8 mph NW2.9 kmh NW 17.4 mph28.0 kmh 29.45 in997.3 mb 0.00 in0.0 mm 0.00 in0.0 mm 0.00 in0.0 mm
04:30 AM 32.4°F0.2°C 2.2°F-16.6°C 27% 1.4 mph NW2.3 kmh NW 17.4 mph28.0 kmh 29.45 in997.3 mb 0.00 in0.0 mm 0.00 in0.0 mm 0.00 in0.0 mm
04:29 AM 32.5°F0.3°C 3.1°F-16.1°C 28% 1.4 mph NW2.3 kmh NW 17.4 mph28.0 kmh 29.45 in997.3 mb 0.00 in0.0 mm 0.00 in0.0 mm 0.00 in0.0 mm
04:28 AM 32.5°F0.3°C 2.3°F-16.5°C 27% 1.1 mph NNW1.8 kmh NNW 17.4 mph28.0 kmh 29.45 in997.3 mb 0.00 in0.0 mm 0.00 in0.0 mm 0.00 in0.0 mm
04:27 AM 32.5°F0.3°C 3.1°F-16.1°C 28% 0.8 mph WNW1.3 kmh WNW 17.4 mph28.0 kmh 29.45 in997.3 mb 0.00 in0.0 mm 0.00 in0.0 mm 0.00 in0.0 mm
04:26 AM 32.5°F0.3°C 3.1°F-16.1°C 28% 0.8 mph W1.3 kmh W 17.4 mph28.0 kmh 29.45 in997.3 mb 0.00 in0.0 mm 0.00 in0.0 mm 0.00 in0.0 mm
04:25 AM 32.5°F0.3°C 3.1°F-16.1°C 28% 1.0 mph W1.6 kmh W 17.4 mph28.0 kmh 29.45 in997.3 mb 0.00 in0.0 mm 0.00 in0.0 mm 0.00 in0.0 mm
04:24 AM 32.5°F0.3°C 3.1°F-16.1°C 28% 0.8 mph W1.3 kmh W 17.4 mph28.0 kmh 29.45 in997.3 mb 0.00 in0.0 mm 0.00 in0.0 mm 0.00 in0.0 mm
04:23 AM 32.5°F0.3°C 3.1°F-16.1°C 28% 0.6 mph NNW1.0 kmh NNW 3.8 mph6.1 kmh 29.46 in997.6 mb 0.00 in0.0 mm 0.00 in0.0 mm 0.00 in0.0 mm
04:22 AM 32.5°F0.3°C 3.1°F-16.1°C 28% 0.7 mph NNW1.1 kmh NNW 3.8 mph6.1 kmh 29.46 in997.6 mb 0.00 in0.0 mm 0.00 in0.0 mm 0.00 in0.0 mm
04:21 AM 32.5°F0.3°C 3.1°F-16.1°C 28% 0.7 mph NW1.1 kmh NW 3.8 mph6.1 kmh 29.46 in997.6 mb 0.00 in0.0 mm 0.00 in0.0 mm 0.00 in0.0 mm
04:20 AM 32.5°F0.3°C 3.1°F-16.1°C 28% 0.9 mph NW1.4 kmh NW 3.8 mph6.1 kmh 29.46 in997.6 mb 0.00 in0.0 mm 0.00 in0.0 mm 0.00 in0.0 mm
04:19 AM 32.5°F0.3°C 3.1°F-16.1°C 28% 0.8 mph NW1.3 kmh NW 3.8 mph6.1 kmh 29.46 in997.6 mb 0.00 in0.0 mm 0.00 in0.0 mm 0.00 in0.0 mm
04:18 AM 32.5°F0.3°C 3.1°F-16.1°C 28% 0.8 mph NW1.3 kmh NW 3.8 mph6.1 kmh 29.46 in997.6 mb 0.00 in0.0 mm 0.00 in0.0 mm 0.00 in0.0 mm
04:17 AM 32.5°F0.3°C 3.1°F-16.1°C 28% 0.8 mph NW1.3 kmh NW 3.8 mph6.1 kmh 29.46 in997.6 mb 0.00 in0.0 mm 0.00 in0.0 mm 0.00 in0.0 mm
04:16 AM 32.5°F0.3°C 3.1°F-16.1°C 28% 0.8 mph NW1.3 kmh NW 3.8 mph6.1 kmh 29.46 in997.6 mb 0.00 in0.0 mm 0.00 in0.0 mm 0.00 in0.0 mm
04:15 AM 32.5°F0.3°C 3.1°F-16.1°C 28% 0.8 mph WNW1.3 kmh WNW 3.8 mph6.1 kmh 29.46 in997.6 mb 0.00 in0.0 mm 0.00 in0.0 mm 0.00 in0.0 mm
04:14 AM 32.5°F0.3°C 3.1°F-16.1°C 28% 1.0 mph NNW1.6 kmh NNW 6.0 mph9.7 kmh 29.46 in997.6 mb 0.00 in0.0 mm 0.00 in0.0 mm 0.00 in0.0 mm
04:13 AM 32.5°F0.3°C 3.1°F-16.1°C 28% 1.1 mph NNW1.8 kmh NNW 6.0 mph9.7 kmh 29.46 in997.6 mb 0.00 in0.0 mm 0.00 in0.0 mm 0.00 in0.0 mm
04:12 AM 32.5°F0.3°C 3.1°F-16.1°C 28% 1.1 mph N1.8 kmh N 6.0 mph9.7 kmh 29.46 in997.6 mb 0.00 in0.0 mm 0.00 in0.0 mm 0.00 in0.0 mm
04:11 AM 32.5°F0.3°C 2.3°F-16.5°C 27% 1.0 mph NNE1.6 kmh NNE 6.0 mph9.7 kmh 29.46 in997.6 mb 0.00 in0.0 mm 0.00 in0.0 mm 0.00 in0.0 mm
04:10 AM 32.5°F0.3°C 2.3°F-16.5°C 27% 0.9 mph NNE1.4 kmh NNE 6.0 mph9.7 kmh 29.46 in997.6 mb 0.00 in0.0 mm 0.00 in0.0 mm 0.00 in0.0 mm
04:09 AM 32.5°F0.3°C 2.3°F-16.5°C 27% 0.9 mph NNE1.4 kmh NNE 6.0 mph9.7 kmh 29.46 in997.6 mb 0.00 in0.0 mm 0.00 in0.0 mm 0.00 in0.0 mm
04:08 AM 32.5°F0.3°C 2.3°F-16.5°C 27% 1.1 mph NNE1.8 kmh NNE 6.9 mph11.1 kmh 29.46 in997.6 mb 0.00 in0.0 mm 0.00 in0.0 mm 0.00 in0.0 mm
04:07 AM 32.5°F0.3°C 2.3°F-16.5°C 27% 1.1 mph NNE1.8 kmh NNE 6.9 mph11.1 kmh 29.46 in997.6 mb 0.00 in0.0 mm 0.00 in0.0 mm 0.00 in0.0 mm
04:06 AM 32.5°F0.3°C 2.3°F-16.5°C 27% 1.2 mph NNE1.9 kmh NNE 13.6 mph21.9 kmh 29.46 in997.6 mb 0.00 in0.0 mm 0.00 in0.0 mm 0.00 in0.0 mm
04:05 AM 32.5°F0.3°C 2.3°F-16.5°C 27% 1.3 mph NNE2.1 kmh NNE 13.6 mph21.9 kmh 29.46 in997.6 mb 0.00 in0.0 mm 0.00 in0.0 mm 0.00 in0.0 mm
04:04 AM 32.5°F0.3°C 2.3°F-16.5°C 27% 1.2 mph N1.9 kmh N 13.6 mph21.9 kmh 29.46 in997.6 mb 0.00 in0.0 mm 0.00 in0.0 mm 0.00 in0.0 mm
04:03 AM 32.5°F0.3°C 2.3°F-16.5°C 27% 1.2 mph NNW1.9 kmh NNW 13.6 mph21.9 kmh 29.46 in997.6 mb 0.00 in0.0 mm 0.00 in0.0 mm 0.00 in0.0 mm
04:02 AM 32.5°F0.3°C 2.3°F-16.5°C 27% 1.2 mph NNW1.9 kmh NNW 13.6 mph21.9 kmh 29.46 in997.6 mb 0.00 in0.0 mm 0.00 in0.0 mm 0.00 in0.0 mm
04:01 AM 32.5°F0.3°C 2.3°F-16.5°C 27% 1.1 mph NW1.8 kmh NW 13.6 mph21.9 kmh 29.46 in997.6 mb 0.00 in0.0 mm 0.00 in0.0 mm 0.00 in0.0 mm
04:00 AM 32.5°F0.3°C 2.3°F-16.5°C 27% 1.1 mph NW1.8 kmh NW 13.6 mph21.9 kmh 29.46 in997.6 mb 0.00 in0.0 mm 0.00 in0.0 mm 0.00 in0.0 mm
03:59 AM 32.5°F0.3°C 2.3°F-16.5°C 27% 1.3 mph NW2.1 kmh NW 13.6 mph21.9 kmh 29.46 in997.6 mb 0.00 in0.0 mm 0.00 in0.0 mm 0.00 in0.0 mm
03:58 AM 32.5°F0.3°C 2.3°F-16.5°C 27% 1.3 mph NW2.1 kmh NW 13.6 mph21.9 kmh 29.46 in997.6 mb 0.00 in0.0 mm 0.00 in0.0 mm 0.00 in0.0 mm
03:57 AM 32.5°F0.3°C 3.1°F-16.1°C 28% 1.4 mph NW2.3 kmh NW 13.6 mph21.9 kmh 29.46 in997.6 mb 0.00 in0.0 mm 0.00 in0.0 mm 0.00 in0.0 mm
03:56 AM 32.5°F0.3°C 3.1°F-16.1°C 28% 1.3 mph NW2.1 kmh NW 13.6 mph21.9 kmh 29.46 in997.6 mb 0.00 in0.0 mm 0.00 in0.0 mm 0.00 in0.0 mm
03:55 AM 32.5°F0.3°C 3.1°F-16.1°C 28% 1.1 mph W1.8 kmh W 5.4 mph8.7 kmh 29.47 in998.0 mb 0.00 in0.0 mm 0.00 in0.0 mm 0.00 in0.0 mm
03:54 AM 32.5°F0.3°C 3.1°F-16.1°C 28% 1.0 mph WNW1.6 kmh WNW 5.4 mph8.7 kmh 29.46 in997.6 mb 0.00 in0.0 mm 0.00 in0.0 mm 0.00 in0.0 mm
03:53 AM 32.5°F0.3°C 3.1°F-16.1°C 28% 0.9 mph NW1.4 kmh NW 5.4 mph8.7 kmh 29.47 in998.0 mb 0.00 in0.0 mm 0.00 in0.0 mm 0.00 in0.0 mm
03:52 AM 32.5°F0.3°C 3.1°F-16.1°C 28% 0.9 mph NW1.4 kmh NW 5.4 mph8.7 kmh 29.46 in997.6 mb 0.00 in0.0 mm 0.00 in0.0 mm 0.00 in0.0 mm
03:51 AM 32.5°F0.3°C 3.1°F-16.1°C 28% 1.0 mph NW1.6 kmh NW 5.4 mph8.7 kmh 29.46 in997.6 mb 0.00 in0.0 mm 0.00 in0.0 mm 0.00 in0.0 mm
03:50 AM 32.5°F0.3°C 3.9°F-15.6°C 29% 1.0 mph NW1.6 kmh NW 5.4 mph8.7 kmh 29.47 in998.0 mb 0.00 in0.0 mm 0.00 in0.0 mm 0.00 in0.0 mm
03:49 AM 32.5°F0.3°C 3.9°F-15.6°C 29% 0.8 mph NW1.3 kmh NW 3.8 mph6.1 kmh 29.46 in997.6 mb 0.00 in0.0 mm 0.00 in0.0 mm 0.00 in0.0 mm
03:48 AM 32.5°F0.3°C 3.9°F-15.6°C 29% 0.7 mph NW1.1 kmh NW 3.8 mph6.1 kmh 29.47 in998.0 mb 0.00 in0.0 mm 0.00 in0.0 mm 0.00 in0.0 mm
03:47 AM 32.5°F0.3°C 3.9°F-15.6°C 29% 0.6 mph NW1.0 kmh NW 3.8 mph6.1 kmh 29.47 in998.0 mb 0.00 in0.0 mm 0.00 in0.0 mm 0.00 in0.0 mm
03:46 AM 32.5°F0.3°C 3.9°F-15.6°C 29% 0.6 mph NW1.0 kmh NW 3.8 mph6.1 kmh 29.47 in998.0 mb 0.00 in0.0 mm 0.00 in0.0 mm 0.00 in0.0 mm
03:45 AM 32.5°F0.3°C 3.9°F-15.6°C 29% 0.6 mph NW1.0 kmh NW 3.8 mph6.1 kmh 29.47 in998.0 mb 0.00 in0.0 mm 0.00 in0.0 mm 0.00 in0.0 mm
03:44 AM 32.5°F0.3°C 3.9°F-15.6°C 29% 0.6 mph NW1.0 kmh NW 3.8 mph6.1 kmh 29.47 in998.0 mb 0.00 in0.0 mm 0.00 in0.0 mm 0.00 in0.0 mm
03:43 AM 32.5°F0.3°C 3.9°F-15.6°C 29% 0.5 mph NW0.8 kmh NW 3.1 mph5.0 kmh 29.47 in998.0 mb 0.00 in0.0 mm 0.00 in0.0 mm 0.00 in0.0 mm
03:42 AM 32.5°F0.3°C 3.9°F-15.6°C 29% 0.5 mph NW0.8 kmh NW 4.5 mph7.2 kmh 29.47 in998.0 mb 0.00 in0.0 mm 0.00 in0.0 mm 0.00 in0.0 mm
03:41 AM 32.4°F0.2°C 3.7°F-15.7°C 29% 0.6 mph NW1.0 kmh NW 4.5 mph7.2 kmh 29.47 in998.0 mb 0.00 in0.0 mm 0.00 in0.0 mm 0.00 in0.0 mm
03:40 AM 32.5°F0.3°C 3.9°F-15.6°C 29% 0.5 mph NW0.8 kmh NW 4.5 mph7.2 kmh 29.47 in998.0 mb 0.00 in0.0 mm 0.00 in0.0 mm 0.00 in0.0 mm
03:39 AM 32.4°F0.2°C 2.9°F-16.2°C 28% 0.6 mph NW1.0 kmh NW 4.5 mph7.2 kmh 29.47 in998.0 mb 0.00 in0.0 mm 0.00 in0.0 mm 0.00 in0.0 mm
03:38 AM 32.4°F0.2°C 3.7°F-15.7°C 29% 0.6 mph NNW1.0 kmh NNW 4.5 mph7.2 kmh 29.47 in998.0 mb 0.00 in0.0 mm 0.00 in0.0 mm 0.00 in0.0 mm
03:37 AM 32.4°F0.2°C 3.7°F-15.7°C 29% 0.6 mph NNW1.0 kmh NNW 4.5 mph7.2 kmh 29.47 in998.0 mb 0.00 in0.0 mm 0.00 in0.0 mm 0.00 in0.0 mm
03:36 AM 32.4°F0.2°C 3.7°F-15.7°C 29% 0.6 mph NW1.0 kmh NW 4.5 mph7.2 kmh 29.47 in998.0 mb 0.00 in0.0 mm 0.00 in0.0 mm 0.00 in0.0 mm
03:35 AM 32.4°F0.2°C 3.7°F-15.7°C 29% 0.8 mph N1.3 kmh N 5.4 mph8.7 kmh 29.47 in998.0 mb 0.00 in0.0 mm 0.00 in0.0 mm 0.00 in0.0 mm
03:34 AM 32.4°F0.2°C 3.7°F-15.7°C 29% 0.8 mph NNE1.3 kmh NNE 5.4 mph8.7 kmh 29.47 in998.0 mb 0.00 in0.0 mm 0.00 in0.0 mm 0.00 in0.0 mm
03:33 AM 32.4°F0.2°C 3.7°F-15.7°C 29% 0.9 mph NNE1.4 kmh NNE 5.4 mph8.7 kmh 29.47 in998.0 mb 0.00 in0.0 mm 0.00 in0.0 mm 0.00 in0.0 mm
03:32 AM 32.4°F0.2°C 3.7°F-15.7°C 29% 0.8 mph NE1.3 kmh NE 5.4 mph8.7 kmh 29.47 in998.0 mb 0.00 in0.0 mm 0.00 in0.0 mm 0.00 in0.0 mm
03:31 AM 32.4°F0.2°C 3.7°F-15.7°C 29% 0.8 mph NE1.3 kmh NE 5.4 mph8.7 kmh 29.47 in998.0 mb 0.00 in0.0 mm 0.00 in0.0 mm 0.00 in0.0 mm
03:30 AM 32.4°F0.2°C 3.7°F-15.7°C 29% 0.9 mph NE1.4 kmh NE 5.4 mph8.7 kmh 29.47 in998.0 mb 0.00 in0.0 mm 0.00 in0.0 mm 0.00 in0.0 mm
03:29 AM 32.4°F0.2°C 3.7°F-15.7°C 29% 1.0 mph NNE1.6 kmh NNE 6.9 mph11.1 kmh 29.47 in998.0 mb 0.00 in0.0 mm 0.00 in0.0 mm 0.00 in0.0 mm
03:28 AM 32.4°F0.2°C 3.7°F-15.7°C 29% 1.0 mph N1.6 kmh N 6.9 mph11.1 kmh 29.47 in998.0 mb 0.00 in0.0 mm 0.00 in0.0 mm 0.00 in0.0 mm
03:27 AM 32.4°F0.2°C 3.7°F-15.7°C 29% 1.0 mph N1.6 kmh N 6.9 mph11.1 kmh 29.47 in998.0 mb 0.00 in0.0 mm 0.00 in0.0 mm 0.00 in0.0 mm
03:26 AM 32.4°F0.2°C 3.7°F-15.7°C 29% 1.1 mph NNE1.8 kmh NNE 6.9 mph11.1 kmh 29.47 in998.0 mb 0.00 in0.0 mm 0.00 in0.0 mm 0.00 in0.0 mm
03:25 AM 32.4°F0.2°C 3.7°F-15.7°C 29% 0.9 mph N1.4 kmh N 6.9 mph11.1 kmh 29.47 in998.0 mb 0.00 in0.0 mm 0.00 in0.0 mm 0.00 in0.0 mm
03:24 AM 32.4°F0.2°C 3.7°F-15.7°C 29% 1.1 mph N1.8 kmh N 6.9 mph11.1 kmh 29.47 in998.0 mb 0.00 in0.0 mm 0.00 in0.0 mm 0.00 in0.0 mm
03:23 AM 32.4°F0.2°C 3.7°F-15.7°C 29% 1.2 mph NE1.9 kmh NE 6.9 mph11.1 kmh 29.47 in998.0 mb 0.00 in0.0 mm 0.00 in0.0 mm 0.00 in0.0 mm
03:22 AM 32.4°F0.2°C 3.7°F-15.7°C 29% 1.2 mph NE1.9 kmh NE 6.9 mph11.1 kmh 29.47 in998.0 mb 0.00 in0.0 mm 0.00 in0.0 mm 0.00 in0.0 mm
03:21 AM 32.4°F0.2°C 3.7°F-15.7°C 29% 1.2 mph NE1.9 kmh NE 6.9 mph11.1 kmh 29.47 in998.0 mb 0.00 in0.0 mm 0.00 in0.0 mm 0.00 in0.0 mm
03:20 AM 32.4°F0.2°C 3.7°F-15.7°C 29% 1.2 mph ENE1.9 kmh ENE 6.9 mph11.1 kmh 29.47 in998.0 mb 0.00 in0.0 mm 0.00 in0.0 mm 0.00 in0.0 mm
03:19 AM 32.4°F0.2°C 3.7°F-15.7°C 29% 1.0 mph ENE1.6 kmh ENE 6.9 mph11.1 kmh 29.47 in998.0 mb 0.00 in0.0 mm 0.00 in0.0 mm 0.00 in0.0 mm
03:18 AM 32.4°F0.2°C 3.7°F-15.7°C 29% 1.2 mph NE1.9 kmh NE 6.9 mph11.1 kmh 29.47 in998.0 mb 0.00 in0.0 mm 0.00 in0.0 mm 0.00 in0.0 mm
03:17 AM 32.4°F0.2°C 3.7°F-15.7°C 29% 1.4 mph NE2.3 kmh NE 6.9 mph11.1 kmh 29.47 in998.0 mb 0.00 in0.0 mm 0.00 in0.0 mm 0.00 in0.0 mm
03:16 AM 32.4°F0.2°C 3.7°F-15.7°C 29% 1.3 mph NE2.1 kmh NE 6.9 mph11.1 kmh 29.47 in998.0 mb 0.00 in0.0 mm 0.00 in0.0 mm 0.00 in0.0 mm
03:15 AM 32.4°F0.2°C 3.7°F-15.7°C 29% 1.2 mph ENE1.9 kmh ENE 6.9 mph11.1 kmh 29.47 in998.0 mb 0.00 in0.0 mm 0.00 in0.0 mm 0.00 in0.0 mm
03:14 AM 32.4°F0.2°C 3.7°F-15.7°C 29% 1.0 mph NE1.6 kmh NE 6.9 mph11.1 kmh 29.47 in998.0 mb 0.00 in0.0 mm 0.00 in0.0 mm 0.00 in0.0 mm
03:13 AM 32.4°F0.2°C 3.7°F-15.7°C 29% 1.0 mph NE1.6 kmh NE 6.9 mph11.1 kmh 29.47 in998.0 mb 0.00 in0.0 mm 0.00 in0.0 mm 0.00 in0.0 mm
03:12 AM 32.4°F0.2°C 3.7°F-15.7°C 29% 1.0 mph NNE1.6 kmh NNE 6.9 mph11.1 kmh 29.47 in998.0 mb 0.00 in0.0 mm 0.00 in0.0 mm 0.00 in0.0 mm
03:11 AM 32.4°F0.2°C 3.7°F-15.7°C 29% 1.2 mph N1.9 kmh N 6.9 mph11.1 kmh 29.47 in998.0 mb 0.00 in0.0 mm 0.00 in0.0 mm 0.00 in0.0 mm
03:10 AM 32.4°F0.2°C 3.7°F-15.7°C 29% 1.2 mph NNW1.9 kmh NNW 6.9 mph11.1 kmh 29.47 in998.0 mb 0.00 in0.0 mm 0.00 in0.0 mm 0.00 in0.0 mm
03:09 AM 32.4°F0.2°C 3.7°F-15.7°C 29% 1.3 mph NNW2.1 kmh NNW 6.9 mph11.1 kmh 29.47 in998.0 mb 0.00 in0.0 mm 0.00 in0.0 mm 0.00 in0.0 mm
03:08 AM 32.4°F0.2°C 3.7°F-15.7°C 29% 1.1 mph NNW1.8 kmh NNW 6.0 mph9.7 kmh 29.47 in998.0 mb 0.00 in0.0 mm 0.00 in0.0 mm 0.00 in0.0 mm
03:07 AM 32.4°F0.2°C 3.7°F-15.7°C 29% 1.0 mph WNW1.6 kmh WNW 6.0 mph9.7 kmh 29.47 in998.0 mb 0.00 in0.0 mm 0.00 in0.0 mm 0.00 in0.0 mm
03:06 AM 32.4°F0.2°C 3.7°F-15.7°C 29% 1.1 mph W1.8 kmh W 6.9 mph11.1 kmh 29.47 in998.0 mb 0.00 in0.0 mm 0.00 in0.0 mm 0.00 in0.0 mm
03:05 AM 32.4°F0.2°C 3.7°F-15.7°C 29% 1.3 mph WSW2.1 kmh WSW 6.9 mph11.1 kmh 29.47 in998.0 mb 0.00 in0.0 mm 0.00 in0.0 mm 0.00 in0.0 mm
03:04 AM 32.4°F0.2°C 3.7°F-15.7°C 29% 1.3 mph W2.1 kmh W 6.9 mph11.1 kmh 29.47 in998.0 mb 0.00 in0.0 mm 0.00 in0.0 mm 0.00 in0.0 mm
03:03 AM 32.4°F0.2°C 3.7°F-15.7°C 29% 1.2 mph W1.9 kmh W 6.9 mph11.1 kmh 29.47 in998.0 mb 0.00 in0.0 mm 0.00 in0.0 mm 0.00 in0.0 mm
03:02 AM 32.4°F0.2°C 3.7°F-15.7°C 29% 1.2 mph W1.9 kmh W 6.9 mph11.1 kmh 29.47 in998.0 mb 0.00 in0.0 mm 0.00 in0.0 mm 0.00 in0.0 mm
03:01 AM 32.4°F0.2°C 3.7°F-15.7°C 29% 1.2 mph W1.9 kmh W 6.9 mph11.1 kmh 29.47 in998.0 mb 0.00 in0.0 mm 0.00 in0.0 mm 0.00 in0.0 mm
03:00 AM 32.4°F0.2°C 3.7°F-15.7°C 29% 1.3 mph WNW2.1 kmh WNW 6.9 mph11.1 kmh 29.47 in998.0 mb 0.00 in0.0 mm 0.00 in0.0 mm 0.00 in0.0 mm
02:59 AM 32.4°F0.2°C 3.7°F-15.7°C 29% 1.4 mph NW2.3 kmh NW 6.9 mph11.1 kmh 29.47 in998.0 mb 0.00 in0.0 mm 0.00 in0.0 mm 0.00 in0.0 mm
02:58 AM 32.4°F0.2°C 3.7°F-15.7°C 29% 1.5 mph WNW2.4 kmh WNW 6.9 mph11.1 kmh 29.47 in998.0 mb 0.00 in0.0 mm 0.00 in0.0 mm 0.00 in0.0 mm
02:57 AM 32.4°F0.2°C 3.7°F-15.7°C 29% 1.8 mph W2.9 kmh W 6.9 mph11.1 kmh 29.47 in998.0 mb 0.00 in0.0 mm 0.00 in0.0 mm 0.00 in0.0 mm
02:56 AM 32.4°F0.2°C 3.7°F-15.7°C 29% 1.7 mph W2.7 kmh W 6.9 mph11.1 kmh 29.47 in998.0 mb 0.00 in0.0 mm 0.00 in0.0 mm 0.00 in0.0 mm
02:55 AM 32.4°F0.2°C 3.7°F-15.7°C 29% 1.5 mph WNW2.4 kmh WNW 6.9 mph11.1 kmh 29.48 in998.3 mb 0.00 in0.0 mm 0.00 in0.0 mm 0.00 in0.0 mm
02:54 AM 32.4°F0.2°C 3.7°F-15.7°C 29% 1.6 mph W2.6 kmh W 6.9 mph11.1 kmh 29.48 in998.3 mb 0.00 in0.0 mm 0.00 in0.0 mm 0.00 in0.0 mm
02:53 AM 32.4°F0.2°C 3.7°F-15.7°C 29% 1.6 mph W2.6 kmh W 6.9 mph11.1 kmh 29.48 in998.3 mb 0.00 in0.0 mm 0.00 in0.0 mm 0.00 in0.0 mm
02:52 AM 32.4°F0.2°C 3.7°F-15.7°C 29% 1.6 mph W2.6 kmh W 9.2 mph14.8 kmh 29.48 in998.3 mb 0.00 in0.0 mm 0.00 in0.0 mm 0.00 in0.0 mm
02:51 AM 32.4°F0.2°C 4.4°F-15.3°C 30% 1.6 mph WNW2.6 kmh WNW 9.2 mph14.8 kmh 29.48 in998.3 mb 0.00 in0.0 mm 0.00 in0.0 mm 0.00 in0.0 mm
02:50 AM 32.4°F0.2°C 3.7°F-15.7°C 29% 1.5 mph WNW2.4 kmh WNW 9.2 mph14.8 kmh 29.48 in998.3 mb 0.00 in0.0 mm 0.00 in0.0 mm 0.00 in0.0 mm
02:49 AM 32.4°F0.2°C 3.7°F-15.7°C 29% 1.4 mph W2.3 kmh W 9.2 mph14.8 kmh 29.47 in998.0 mb 0.00 in0.0 mm 0.00 in0.0 mm 0.00 in0.0 mm
02:48 AM 32.4°F0.2°C 3.7°F-15.7°C 29% 1.4 mph W2.3 kmh W 9.2 mph14.8 kmh 29.48 in998.3 mb 0.00 in0.0 mm 0.00 in0.0 mm 0.00 in0.0 mm
02:47 AM 32.4°F0.2°C 3.7°F-15.7°C 29% 1.2 mph NW1.9 kmh NW 9.2 mph14.8 kmh 29.48 in998.3 mb 0.00 in0.0 mm 0.00 in0.0 mm 0.00 in0.0 mm
02:46 AM 32.4°F0.2°C 3.7°F-15.7°C 29% 1.4 mph N2.3 kmh N 9.2 mph14.8 kmh 29.48 in998.3 mb 0.00 in0.0 mm 0.00 in0.0 mm 0.00 in0.0 mm
02:45 AM 32.4°F0.2°C 3.7°F-15.7°C 29% 1.5 mph NNE2.4 kmh NNE 9.2 mph14.8 kmh 29.48 in998.3 mb 0.00 in0.0 mm 0.00 in0.0 mm 0.00 in0.0 mm
02:44 AM 32.4°F0.2°C 3.7°F-15.7°C 29% 1.6 mph NNE2.6 kmh NNE 9.2 mph14.8 kmh 29.48 in998.3 mb 0.00 in0.0 mm 0.00 in0.0 mm 0.00 in0.0 mm
02:43 AM 32.4°F0.2°C 3.7°F-15.7°C 29% 1.7 mph NE2.7 kmh NE 9.2 mph14.8 kmh 29.48 in998.3 mb 0.00 in0.0 mm 0.00 in0.0 mm 0.00 in0.0 mm
02:42 AM 32.4°F0.2°C 3.7°F-15.7°C 29% 1.7 mph E2.7 kmh E 6.9 mph11.1 kmh 29.48 in998.3 mb 0.00 in0.0 mm 0.00 in0.0 mm 0.00 in0.0 mm
02:41 AM 32.4°F0.2°C 3.7°F-15.7°C 29% 1.6 mph E2.6 kmh E 6.9 mph11.1 kmh 29.48 in998.3 mb 0.00 in0.0 mm 0.00 in0.0 mm 0.00 in0.0 mm
02:40 AM 32.4°F0.2°C 3.7°F-15.7°C 29% 1.8 mph E2.9 kmh E 6.9 mph11.1 kmh 29.48 in998.3 mb 0.00 in0.0 mm 0.00 in0.0 mm 0.00 in0.0 mm
02:39 AM 32.4°F0.2°C 4.4°F-15.3°C 30% 1.9 mph E3.1 kmh E 6.9 mph11.1 kmh 29.48 in998.3 mb 0.00 in0.0 mm 0.00 in0.0 mm 0.00 in0.0 mm
02:38 AM 32.4°F0.2°C 4.4°F-15.3°C 30% 1.6 mph E2.6 kmh E 6.9 mph11.1 kmh 29.48 in998.3 mb 0.00 in0.0 mm 0.00 in0.0 mm 0.00 in0.0 mm
02:37 AM 32.4°F0.2°C 4.4°F-15.3°C 30% 1.5 mph E2.4 kmh E 6.9 mph11.1 kmh 29.48 in998.3 mb 0.00 in0.0 mm 0.00 in0.0 mm 0.00 in0.0 mm
02:36 AM 32.4°F0.2°C 4.4°F-15.3°C 30% 1.3 mph E2.1 kmh E 5.4 mph8.7 kmh 29.48 in998.3 mb 0.00 in0.0 mm 0.00 in0.0 mm 0.00 in0.0 mm
02:35 AM 32.4°F0.2°C 4.4°F-15.3°C 30% 1.2 mph ENE1.9 kmh ENE 5.4 mph8.7 kmh 29.48 in998.3 mb 0.00 in0.0 mm 0.00 in0.0 mm 0.00 in0.0 mm
02:34 AM 32.4°F0.2°C 4.4°F-15.3°C 30% 1.2 mph NNE1.9 kmh NNE 5.4 mph8.7 kmh 29.48 in998.3 mb 0.00 in0.0 mm 0.00 in0.0 mm 0.00 in0.0 mm
02:33 AM 32.4°F0.2°C 4.4°F-15.3°C 30% 1.1 mph N1.8 kmh N 5.4 mph8.7 kmh 29.48 in998.3 mb 0.00 in0.0 mm 0.00 in0.0 mm 0.00 in0.0 mm
02:32 AM 32.4°F0.2°C 4.4°F-15.3°C 30% 1.0 mph N1.6 kmh N 5.4 mph8.7 kmh 29.48 in998.3 mb 0.00 in0.0 mm 0.00 in0.0 mm 0.00 in0.0 mm
02:31 AM 32.4°F0.2°C 4.4°F-15.3°C 30% 1.0 mph N1.6 kmh N 5.4 mph8.7 kmh 29.48 in998.3 mb 0.00 in0.0 mm 0.00 in0.0 mm 0.00 in0.0 mm
02:30 AM 32.4°F0.2°C 4.4°F-15.3°C 30% 1.0 mph NNE1.6 kmh NNE 5.4 mph8.7 kmh 29.48 in998.3 mb 0.00 in0.0 mm 0.00 in0.0 mm 0.00 in0.0 mm
02:29 AM 32.4°F0.2°C 4.4°F-15.3°C 30% 0.9 mph NNE1.4 kmh NNE 5.4 mph8.7 kmh 29.48 in998.3 mb 0.00 in0.0 mm 0.00 in0.0 mm 0.00 in0.0 mm
02:28 AM 32.4°F0.2°C 4.4°F-15.3°C 30% 1.1 mph N1.8 kmh N 5.4 mph8.7 kmh 29.48 in998.3 mb 0.00 in0.0 mm 0.00 in0.0 mm 0.00 in0.0 mm
02:27 AM 32.4°F0.2°C 4.4°F-15.3°C 30% 1.2 mph NNW1.9 kmh NNW 7.6 mph12.2 kmh 29.48 in998.3 mb 0.00 in0.0 mm 0.00 in0.0 mm 0.00 in0.0 mm
02:26 AM 32.4°F0.2°C 4.4°F-15.3°C 30% 1.2 mph NNW1.9 kmh NNW 7.6 mph12.2 kmh 29.48 in998.3 mb 0.00 in0.0 mm 0.00 in0.0 mm 0.00 in0.0 mm
02:25 AM 32.4°F0.2°C 4.4°F-15.3°C 30% 1.3 mph N2.1 kmh N 7.6 mph12.2 kmh 29.48 in998.3 mb 0.00 in0.0 mm 0.00 in0.0 mm 0.00 in0.0 mm
02:24 AM 32.4°F0.2°C 4.4°F-15.3°C 30% 1.2 mph N1.9 kmh N 7.6 mph12.2 kmh 29.48 in998.3 mb 0.00 in0.0 mm 0.00 in0.0 mm 0.00 in0.0 mm
02:23 AM 32.4°F0.2°C 4.4°F-15.3°C 30% 1.2 mph N1.9 kmh N 7.6 mph12.2 kmh 29.48 in998.3 mb 0.00 in0.0 mm 0.00 in0.0 mm 0.00 in0.0 mm
02:22 AM 32.4°F0.2°C 4.4°F-15.3°C 30% 1.3 mph NNW2.1 kmh NNW 7.6 mph12.2 kmh 29.48 in998.3 mb 0.00 in0.0 mm 0.00 in0.0 mm 0.00 in0.0 mm
02:21 AM 32.4°F0.2°C 4.4°F-15.3°C 30% 1.1 mph NNW1.8 kmh NNW 7.6 mph12.2 kmh 29.47 in998.0 mb 0.00 in0.0 mm 0.00 in0.0 mm 0.00 in0.0 mm
02:20 AM 32.4°F0.2°C 4.4°F-15.3°C 30% 1.0 mph NW1.6 kmh NW 7.6 mph12.2 kmh 29.48 in998.3 mb 0.00 in0.0 mm 0.00 in0.0 mm 0.00 in0.0 mm
02:19 AM 32.4°F0.2°C 4.4°F-15.3°C 30% 1.3 mph NNW2.1 kmh NNW 7.6 mph12.2 kmh 29.48 in998.3 mb 0.00 in0.0 mm 0.00 in0.0 mm 0.00 in0.0 mm
02:18 AM 32.4°F0.2°C 4.4°F-15.3°C 30% 1.3 mph NW2.1 kmh NW 7.6 mph12.2 kmh 29.48 in998.3 mb 0.00 in0.0 mm 0.00 in0.0 mm 0.00 in0.0 mm
02:17 AM 32.4°F0.2°C 4.4°F-15.3°C 30% 1.2 mph N1.9 kmh N 7.6 mph12.2 kmh 29.48 in998.3 mb 0.00 in0.0 mm 0.00 in0.0 mm 0.00 in0.0 mm
02:16 AM 32.4°F0.2°C 4.4°F-15.3°C 30% 1.2 mph N1.9 kmh N 7.6 mph12.2 kmh 29.48 in998.3 mb 0.00 in0.0 mm 0.00 in0.0 mm 0.00 in0.0 mm
02:15 AM 32.4°F0.2°C 4.4°F-15.3°C 30% 1.2 mph NNW1.9 kmh NNW 7.6 mph12.2 kmh 29.48 in998.3 mb 0.00 in0.0 mm 0.00 in0.0 mm 0.00 in0.0 mm
02:14 AM 32.4°F0.2°C 4.4°F-15.3°C 30% 1.1 mph NNW1.8 kmh NNW 7.6 mph12.2 kmh 29.48 in998.3 mb 0.00 in0.0 mm 0.00 in0.0 mm 0.00 in0.0 mm
02:13 AM 32.4°F0.2°C 4.4°F-15.3°C 30% 1.2 mph NNW1.9 kmh NNW 7.6 mph12.2 kmh 29.48 in998.3 mb 0.00 in0.0 mm 0.00 in0.0 mm 0.00 in0.0 mm
02:12 AM 32.4°F0.2°C 4.4°F-15.3°C 30% 1.2 mph NNW1.9 kmh NNW 8.3 mph13.4 kmh 29.48 in998.3 mb 0.00 in0.0 mm 0.00 in0.0 mm 0.00 in0.0 mm
02:11 AM 32.4°F0.2°C 4.4°F-15.3°C 30% 1.2 mph NNW1.9 kmh NNW 8.3 mph13.4 kmh 29.48 in998.3 mb 0.00 in0.0 mm 0.00 in0.0 mm 0.00 in0.0 mm
02:10 AM 32.4°F0.2°C 4.4°F-15.3°C 30% 1.2 mph N1.9 kmh N 8.3 mph13.4 kmh 29.48 in998.3 mb 0.00 in0.0 mm 0.00 in0.0 mm 0.00 in0.0 mm
02:09 AM 32.4°F0.2°C 4.4°F-15.3°C 30% 1.1 mph WNW1.8 kmh WNW 8.3 mph13.4 kmh 29.48 in998.3 mb 0.00 in0.0 mm 0.00 in0.0 mm 0.00 in0.0 mm
02:08 AM 32.4°F0.2°C 4.4°F-15.3°C 30% 1.0 mph NNW1.6 kmh NNW 8.3 mph13.4 kmh 29.48 in998.3 mb 0.00 in0.0 mm 0.00 in0.0 mm 0.00 in0.0 mm
02:07 AM 32.4°F0.2°C 4.4°F-15.3°C 30% 0.9 mph NW1.4 kmh NW 8.3 mph13.4 kmh 29.48 in998.3 mb 0.00 in0.0 mm 0.00 in0.0 mm 0.00 in0.0 mm
02:06 AM 32.4°F0.2°C 4.4°F-15.3°C 30% 0.8 mph W1.3 kmh W 8.3 mph13.4 kmh 29.48 in998.3 mb 0.00 in0.0 mm 0.00 in0.0 mm 0.00 in0.0 mm
02:05 AM 32.4°F0.2°C 4.4°F-15.3°C 30% 0.8 mph NW1.3 kmh NW 8.3 mph13.4 kmh 29.48 in998.3 mb 0.00 in0.0 mm 0.00 in0.0 mm 0.00 in0.0 mm
02:04 AM 32.4°F0.2°C 4.4°F-15.3°C 30% 1.0 mph NNW1.6 kmh NNW 8.3 mph13.4 kmh 29.48 in998.3 mb 0.00 in0.0 mm 0.00 in0.0 mm 0.00 in0.0 mm
02:03 AM 32.4°F0.2°C 4.4°F-15.3°C 30% 1.2 mph NW1.9 kmh NW 8.3 mph13.4 kmh 29.48 in998.3 mb 0.00 in0.0 mm 0.00 in0.0 mm 0.00 in0.0 mm
02:02 AM 32.4°F0.2°C 4.4°F-15.3°C 30% 1.1 mph NNW1.8 kmh NNW 6.9 mph11.1 kmh 29.48 in998.3 mb 0.00 in0.0 mm 0.00 in0.0 mm 0.00 in0.0 mm
02:01 AM 32.4°F0.2°C 4.4°F-15.3°C 30% 1.1 mph NW1.8 kmh NW 6.9 mph11.1 kmh 29.48 in998.3 mb 0.00 in0.0 mm 0.00 in0.0 mm 0.00 in0.0 mm
02:00 AM 32.4°F0.2°C 4.4°F-15.3°C 30% 1.1 mph NNW1.8 kmh NNW 6.9 mph11.1 kmh 29.49 in998.6 mb 0.00 in0.0 mm 0.00 in0.0 mm 0.00 in0.0 mm
01:59 AM 32.4°F0.2°C 4.4°F-15.3°C 30% 1.0 mph N1.6 kmh N 6.9 mph11.1 kmh 29.49 in998.6 mb 0.00 in0.0 mm 0.00 in0.0 mm 0.00 in0.0 mm
01:58 AM 32.4°F0.2°C 3.7°F-15.7°C 29% 1.1 mph N1.8 kmh N 6.9 mph11.1 kmh 29.49 in998.6 mb 0.00 in0.0 mm 0.00 in0.0 mm 0.00 in0.0 mm
01:57 AM 32.4°F0.2°C 3.7°F-15.7°C 29% 1.2 mph N1.9 kmh N 6.9 mph11.1 kmh 29.49 in998.6 mb 0.00 in0.0 mm 0.00 in0.0 mm 0.00 in0.0 mm
01:56 AM 32.4°F0.2°C 3.7°F-15.7°C 29% 1.2 mph N1.9 kmh N 6.9 mph11.1 kmh 29.49 in998.6 mb 0.00 in0.0 mm 0.00 in0.0 mm 0.00 in0.0 mm
01:55 AM 32.4°F0.2°C 3.7°F-15.7°C 29% 1.2 mph N1.9 kmh N 6.9 mph11.1 kmh 29.49 in998.6 mb 0.00 in0.0 mm 0.00 in0.0 mm 0.00 in0.0 mm
01:54 AM 32.4°F0.2°C 3.7°F-15.7°C 29% 1.0 mph N1.6 kmh N 6.9 mph11.1 kmh 29.49 in998.6 mb 0.00 in0.0 mm 0.00 in0.0 mm 0.00 in0.0 mm
01:53 AM 32.4°F0.2°C 3.7°F-15.7°C 29% 0.8 mph NE1.3 kmh NE 4.5 mph7.2 kmh 29.49 in998.6 mb 0.00 in0.0 mm 0.00 in0.0 mm 0.00 in0.0 mm
01:52 AM 32.4°F0.2°C 3.7°F-15.7°C 29% 0.8 mph NE1.3 kmh NE 4.5 mph7.2 kmh 29.49 in998.6 mb 0.00 in0.0 mm 0.00 in0.0 mm 0.00 in0.0 mm
01:51 AM 32.5°F0.3°C 3.9°F-15.6°C 29% 1.0 mph NE1.6 kmh NE 6.9 mph11.1 kmh 29.49 in998.6 mb 0.00 in0.0 mm 0.00 in0.0 mm 0.00 in0.0 mm
01:50 AM 32.4°F0.2°C 3.7°F-15.7°C 29% 1.3 mph ENE2.1 kmh ENE 6.9 mph11.1 kmh 29.49 in998.6 mb 0.00 in0.0 mm 0.00 in0.0 mm 0.00 in0.0 mm
01:49 AM 32.4°F0.2°C 3.7°F-15.7°C 29% 1.4 mph NE2.3 kmh NE 6.9 mph11.1 kmh 29.49 in998.6 mb 0.00 in0.0 mm 0.00 in0.0 mm 0.00 in0.0 mm
01:48 AM 32.4°F0.2°C 3.7°F-15.7°C 29% 1.3 mph ENE2.1 kmh ENE 6.9 mph11.1 kmh 29.49 in998.6 mb 0.00 in0.0 mm 0.00 in0.0 mm 0.00 in0.0 mm
01:47 AM 32.4°F0.2°C 3.7°F-15.7°C 29% 1.2 mph NE1.9 kmh NE 6.9 mph11.1 kmh 29.49 in998.6 mb 0.00 in0.0 mm 0.00 in0.0 mm 0.00 in0.0 mm
01:46 AM 32.4°F0.2°C 3.7°F-15.7°C 29% 1.2 mph NE1.9 kmh NE 6.9 mph11.1 kmh 29.49 in998.6 mb 0.00 in0.0 mm 0.00 in0.0 mm 0.00 in0.0 mm
01:45 AM 32.5°F0.3°C 3.9°F-15.6°C 29% 1.4 mph ENE2.3 kmh ENE 6.9 mph11.1 kmh 29.49 in998.6 mb 0.00 in0.0 mm 0.00 in0.0 mm 0.00 in0.0 mm
01:44 AM 32.5°F0.3°C 3.9°F-15.6°C 29% 1.4 mph NE2.3 kmh NE 6.9 mph11.1 kmh 29.49 in998.6 mb 0.00 in0.0 mm 0.00 in0.0 mm 0.00 in0.0 mm
01:43 AM 32.5°F0.3°C 3.9°F-15.6°C 29% 1.8 mph NE2.9 kmh NE 9.2 mph14.8 kmh 29.49 in998.6 mb 0.00 in0.0 mm 0.00 in0.0 mm 0.00 in0.0 mm
01:42 AM 32.5°F0.3°C 3.9°F-15.6°C 29% 1.9 mph NE3.1 kmh NE 9.2 mph14.8 kmh 29.49 in998.6 mb 0.00 in0.0 mm 0.00 in0.0 mm 0.00 in0.0 mm
01:41 AM 32.5°F0.3°C 3.9°F-15.6°C 29% 2.0 mph NNE3.2 kmh NNE 9.2 mph14.8 kmh 29.49 in998.6 mb 0.00 in0.0 mm 0.00 in0.0 mm 0.00 in0.0 mm
01:40 AM 32.5°F0.3°C 3.9°F-15.6°C 29% 1.8 mph NNE2.9 kmh NNE 9.2 mph14.8 kmh 29.49 in998.6 mb 0.00 in0.0 mm 0.00 in0.0 mm 0.00 in0.0 mm
01:39 AM 32.5°F0.3°C 3.9°F-15.6°C 29% 1.7 mph NNE2.7 kmh NNE 9.2 mph14.8 kmh 29.49 in998.6 mb 0.00 in0.0 mm 0.00 in0.0 mm 0.00 in0.0 mm
01:38 AM 32.5°F0.3°C 3.9°F-15.6°C 29% 1.7 mph NNE2.7 kmh NNE 9.2 mph14.8 kmh 29.49 in998.6 mb 0.00 in0.0 mm 0.00 in0.0 mm 0.00 in0.0 mm
01:37 AM 32.5°F0.3°C 3.9°F-15.6°C 29% 1.9 mph NNE3.1 kmh NNE 9.2 mph14.8 kmh 29.49 in998.6 mb 0.00 in0.0 mm 0.00 in0.0 mm 0.00 in0.0 mm
01:36 AM 32.5°F0.3°C 3.9°F-15.6°C 29% 1.8 mph NNE2.9 kmh NNE 9.2 mph14.8 kmh 29.49 in998.6 mb 0.00 in0.0 mm 0.00 in0.0 mm 0.00 in0.0 mm
01:35 AM 32.5°F0.3°C 3.9°F-15.6°C 29% 1.8 mph NNE2.9 kmh NNE 9.2 mph14.8 kmh 29.49 in998.6 mb 0.00 in0.0 mm 0.00 in0.0 mm 0.00 in0.0 mm
01:34 AM 32.5°F0.3°C 3.9°F-15.6°C 29% 1.9 mph NNE3.1 kmh NNE 9.2 mph14.8 kmh 29.49 in998.6 mb 0.00 in0.0 mm 0.00 in0.0 mm 0.00 in0.0 mm
01:33 AM 32.5°F0.3°C 3.9°F-15.6°C 29% 1.5 mph N2.4 kmh N 8.3 mph13.4 kmh 29.49 in998.6 mb 0.00 in0.0 mm 0.00 in0.0 mm 0.00 in0.0 mm
01:32 AM 32.5°F0.3°C 3.9°F-15.6°C 29% 1.5 mph N2.4 kmh N 8.3 mph13.4 kmh 29.49 in998.6 mb 0.00 in0.0 mm 0.00 in0.0 mm 0.00 in0.0 mm
01:31 AM 32.5°F0.3°C 3.9°F-15.6°C 29% 1.5 mph N2.4 kmh N 8.3 mph13.4 kmh 29.49 in998.6 mb 0.00 in0.0 mm 0.00 in0.0 mm 0.00 in0.0 mm
01:30 AM 32.5°F0.3°C 3.9°F-15.6°C 29% 1.5 mph NNW2.4 kmh NNW 8.3 mph13.4 kmh 29.49 in998.6 mb 0.00 in0.0 mm 0.00 in0.0 mm 0.00 in0.0 mm
01:29 AM 32.5°F0.3°C 3.9°F-15.6°C 29% 1.9 mph N3.1 kmh N 13.0 mph20.9 kmh 29.49 in998.6 mb 0.00 in0.0 mm 0.00 in0.0 mm 0.00 in0.0 mm
01:28 AM 32.5°F0.3°C 3.9°F-15.6°C 29% 2.4 mph N3.9 kmh N 13.0 mph20.9 kmh 29.49 in998.6 mb 0.00 in0.0 mm 0.00 in0.0 mm 0.00 in0.0 mm
01:27 AM 32.5°F0.3°C 3.9°F-15.6°C 29% 2.4 mph N3.9 kmh N 13.0 mph20.9 kmh 29.49 in998.6 mb 0.00 in0.0 mm 0.00 in0.0 mm 0.00 in0.0 mm
01:26 AM 32.5°F0.3°C 3.9°F-15.6°C 29% 2.5 mph N4.0 kmh N 13.0 mph20.9 kmh 29.49 in998.6 mb 0.00 in0.0 mm 0.00 in0.0 mm 0.00 in0.0 mm
01:25 AM 32.5°F0.3°C 3.9°F-15.6°C 29% 2.6 mph N4.2 kmh N 13.0 mph20.9 kmh 29.49 in998.6 mb 0.00 in0.0 mm 0.00 in0.0 mm 0.00 in0.0 mm
01:24 AM 32.5°F0.3°C 3.9°F-15.6°C 29% 2.4 mph NNE3.9 kmh NNE 13.0 mph20.9 kmh 29.49 in998.6 mb 0.00 in0.0 mm 0.00 in0.0 mm 0.00 in0.0 mm
01:23 AM 32.5°F0.3°C 3.9°F-15.6°C 29% 2.5 mph N4.0 kmh N 13.0 mph20.9 kmh 29.49 in998.6 mb 0.00 in0.0 mm 0.00 in0.0 mm 0.00 in0.0 mm
01:22 AM 32.5°F0.3°C 3.9°F-15.6°C 29% 2.7 mph N4.3 kmh N 13.0 mph20.9 kmh 29.49 in998.6 mb 0.00 in0.0 mm 0.00 in0.0 mm 0.00 in0.0 mm
01:21 AM 32.5°F0.3°C 3.9°F-15.6°C 29% 2.8 mph NNE4.5 kmh NNE 13.0 mph20.9 kmh 29.49 in998.6 mb 0.00 in0.0 mm 0.00 in0.0 mm 0.00 in0.0 mm
01:20 AM 32.5°F0.3°C 3.9°F-15.6°C 29% 3.0 mph ENE4.8 kmh ENE 13.0 mph20.9 kmh 29.49 in998.6 mb 0.00 in0.0 mm 0.00 in0.0 mm 0.00 in0.0 mm
01:19 AM 32.5°F0.3°C 3.9°F-15.6°C 29% 2.7 mph NE4.3 kmh NE 13.0 mph20.9 kmh 29.49 in998.6 mb 0.00 in0.0 mm 0.00 in0.0 mm 0.00 in0.0 mm
01:18 AM 32.5°F0.3°C 3.9°F-15.6°C 29% 2.3 mph N3.7 kmh N 12.1 mph19.5 kmh 29.49 in998.6 mb 0.00 in0.0 mm 0.00 in0.0 mm 0.00 in0.0 mm
01:17 AM 32.5°F0.3°C 3.9°F-15.6°C 29% 2.2 mph N3.5 kmh N 7.6 mph12.2 kmh 29.49 in998.6 mb 0.00 in0.0 mm 0.00 in0.0 mm 0.00 in0.0 mm
01:16 AM 32.5°F0.3°C 3.9°F-15.6°C 29% 2.0 mph NNE3.2 kmh NNE 6.0 mph9.7 kmh 29.49 in998.6 mb 0.00 in0.0 mm 0.00 in0.0 mm 0.00 in0.0 mm
01:15 AM 32.5°F0.3°C 3.9°F-15.6°C 29% 1.9 mph NNE3.1 kmh NNE 6.0 mph9.7 kmh 29.49 in998.6 mb 0.00 in0.0 mm 0.00 in0.0 mm 0.00 in0.0 mm
01:14 AM 32.5°F0.3°C 3.9°F-15.6°C 29% 1.9 mph N3.1 kmh N 6.0 mph9.7 kmh 29.49 in998.6 mb 0.00 in0.0 mm 0.00 in0.0 mm 0.00 in0.0 mm
01:13 AM 32.5°F0.3°C 3.9°F-15.6°C 29% 2.0 mph N3.2 kmh N 6.0 mph9.7 kmh 29.49 in998.6 mb 0.00 in0.0 mm 0.00 in0.0 mm 0.00 in0.0 mm
01:12 AM 32.5°F0.3°C 3.9°F-15.6°C 29% 1.9 mph NNE3.1 kmh NNE 7.6 mph12.2 kmh 29.49 in998.6 mb 0.00 in0.0 mm 0.00 in0.0 mm 0.00 in0.0 mm
01:11 AM 32.5°F0.3°C 3.9°F-15.6°C 29% 1.8 mph N2.9 kmh N 7.6 mph12.2 kmh 29.49 in998.6 mb 0.00 in0.0 mm 0.00 in0.0 mm 0.00 in0.0 mm
01:10 AM 32.5°F0.3°C 3.9°F-15.6°C 29% 1.8 mph NNE2.9 kmh NNE 8.3 mph13.4 kmh 29.49 in998.6 mb 0.00 in0.0 mm 0.00 in0.0 mm 0.00 in0.0 mm
01:09 AM 32.5°F0.3°C 3.9°F-15.6°C 29% 1.9 mph NE3.1 kmh NE 8.3 mph13.4 kmh 29.49 in998.6 mb 0.00 in0.0 mm 0.00 in0.0 mm 0.00 in0.0 mm
01:08 AM 32.5°F0.3°C 3.9°F-15.6°C 29% 2.0 mph NE3.2 kmh NE 8.3 mph13.4 kmh 29.49 in998.6 mb 0.00 in0.0 mm 0.00 in0.0 mm 0.00 in0.0 mm
01:07 AM 32.5°F0.3°C 3.9°F-15.6°C 29% 2.0 mph NE3.2 kmh NE 8.3 mph13.4 kmh 29.49 in998.6 mb 0.00 in0.0 mm 0.00 in0.0 mm 0.00 in0.0 mm
01:06 AM 32.5°F0.3°C 3.9°F-15.6°C 29% 2.0 mph NE3.2 kmh NE 8.3 mph13.4 kmh 29.49 in998.6 mb 0.00 in0.0 mm 0.00 in0.0 mm 0.00 in0.0 mm
01:05 AM 32.5°F0.3°C 3.9°F-15.6°C 29% 2.1 mph NE3.4 kmh NE 8.3 mph13.4 kmh 29.49 in998.6 mb 0.00 in0.0 mm 0.00 in0.0 mm 0.00 in0.0 mm
01:04 AM 32.5°F0.3°C 3.9°F-15.6°C 29% 2.2 mph NE3.5 kmh NE 8.3 mph13.4 kmh 29.49 in998.6 mb 0.00 in0.0 mm 0.00 in0.0 mm 0.00 in0.0 mm
01:03 AM 32.5°F0.3°C 3.9°F-15.6°C 29% 2.3 mph NE3.7 kmh NE 8.3 mph13.4 kmh 29.49 in998.6 mb 0.00 in0.0 mm 0.00 in0.0 mm 0.00 in0.0 mm
01:02 AM 32.5°F0.3°C 3.9°F-15.6°C 29% 2.1 mph E3.4 kmh E 8.3 mph13.4 kmh 29.49 in998.6 mb 0.00 in0.0 mm 0.00 in0.0 mm 0.00 in0.0 mm
01:01 AM 32.5°F0.3°C 3.9°F-15.6°C 29% 2.2 mph E3.5 kmh E 8.3 mph13.4 kmh 29.49 in998.6 mb 0.00 in0.0 mm 0.00 in0.0 mm 0.00 in0.0 mm
01:00 AM 32.5°F0.3°C 3.9°F-15.6°C 29% 2.1 mph ESE3.4 kmh ESE 9.8 mph15.8 kmh 29.49 in998.6 mb 0.00 in0.0 mm 0.00 in0.0 mm 0.00 in0.0 mm
12:59 AM 32.5°F0.3°C 3.9°F-15.6°C 29% 1.9 mph SW3.1 kmh SW 9.8 mph15.8 kmh 29.49 in998.6 mb 0.00 in0.0 mm 0.00 in0.0 mm 0.00 in0.0 mm
12:58 AM 32.5°F0.3°C 3.9°F-15.6°C 29% 2.0 mph WNW3.2 kmh WNW 9.8 mph15.8 kmh 29.48 in998.3 mb 0.00 in0.0 mm 0.00 in0.0 mm 0.00 in0.0 mm
12:57 AM 32.5°F0.3°C 3.9°F-15.6°C 29% 2.2 mph WNW3.5 kmh WNW 9.8 mph15.8 kmh 29.49 in998.6 mb 0.00 in0.0 mm 0.00 in0.0 mm 0.00 in0.0 mm
12:56 AM 32.5°F0.3°C 3.9°F-15.6°C 29% 2.3 mph NW3.7 kmh NW 9.8 mph15.8 kmh 29.49 in998.6 mb 0.00 in0.0 mm 0.00 in0.0 mm 0.00 in0.0 mm
12:55 AM 32.5°F0.3°C 3.9°F-15.6°C 29% 2.4 mph N3.9 kmh N 9.8 mph15.8 kmh 29.49 in998.6 mb 0.00 in0.0 mm 0.00 in0.0 mm 0.00 in0.0 mm
12:54 AM 32.5°F0.3°C 3.9°F-15.6°C 29% 2.4 mph N3.9 kmh N 9.8 mph15.8 kmh 29.49 in998.6 mb 0.00 in0.0 mm 0.00 in0.0 mm 0.00 in0.0 mm
12:53 AM 32.5°F0.3°C 3.9°F-15.6°C 29% 2.3 mph ENE3.7 kmh ENE 9.8 mph15.8 kmh 29.49 in998.6 mb 0.00 in0.0 mm 0.00 in0.0 mm 0.00 in0.0 mm
12:52 AM 32.5°F0.3°C 3.9°F-15.6°C 29% 2.3 mph NE3.7 kmh NE 9.8 mph15.8 kmh 29.49 in998.6 mb 0.00 in0.0 mm 0.00 in0.0 mm 0.00 in0.0 mm
12:51 AM 32.5°F0.3°C 4.6°F-15.2°C 30% 2.2 mph NE3.5 kmh NE 9.8 mph15.8 kmh 29.49 in998.6 mb 0.00 in0.0 mm 0.00 in0.0 mm 0.00 in0.0 mm
12:50 AM 32.5°F0.3°C 4.6°F-15.2°C 30% 2.1 mph NE3.4 kmh NE 9.8 mph15.8 kmh 29.49 in998.6 mb 0.00 in0.0 mm 0.00 in0.0 mm 0.00 in0.0 mm
12:49 AM 32.5°F0.3°C 3.9°F-15.6°C 29% 2.2 mph NE3.5 kmh NE 9.8 mph15.8 kmh 29.49 in998.6 mb 0.00 in0.0 mm 0.00 in0.0 mm 0.00 in0.0 mm
12:48 AM 32.5°F0.3°C 4.6°F-15.2°C 30% 2.1 mph ENE3.4 kmh ENE 9.8 mph15.8 kmh 29.49 in998.6 mb 0.00 in0.0 mm 0.00 in0.0 mm 0.00 in0.0 mm
12:47 AM 32.5°F0.3°C 4.6°F-15.2°C 30% 2.5 mph E4.0 kmh E 14.5 mph23.3 kmh 29.49 in998.6 mb 0.00 in0.0 mm 0.00 in0.0 mm 0.00 in0.0 mm
12:46 AM 32.5°F0.3°C 4.6°F-15.2°C 30% 2.5 mph E4.0 kmh E 14.5 mph23.3 kmh 29.49 in998.6 mb 0.00 in0.0 mm 0.00 in0.0 mm 0.00 in0.0 mm
12:45 AM 32.5°F0.3°C 4.6°F-15.2°C 30% 2.6 mph ENE4.2 kmh ENE 14.5 mph23.3 kmh 29.48 in998.3 mb 0.00 in0.0 mm 0.00 in0.0 mm 0.00 in0.0 mm
12:44 AM 32.5°F0.3°C 4.6°F-15.2°C 30% 2.8 mph ENE4.5 kmh ENE 14.5 mph23.3 kmh 29.48 in998.3 mb 0.00 in0.0 mm 0.00 in0.0 mm 0.00 in0.0 mm
12:43 AM 32.5°F0.3°C 4.6°F-15.2°C 30% 2.8 mph ENE4.5 kmh ENE 14.5 mph23.3 kmh 29.48 in998.3 mb 0.00 in0.0 mm 0.00 in0.0 mm 0.00 in0.0 mm
12:42 AM 32.5°F0.3°C 4.6°F-15.2°C 30% 2.9 mph NNE4.7 kmh NNE 14.5 mph23.3 kmh 29.48 in998.3 mb 0.00 in0.0 mm 0.00 in0.0 mm 0.00 in0.0 mm
12:41 AM 32.5°F0.3°C 4.6°F-15.2°C 30% 3.0 mph NNE4.8 kmh NNE 14.5 mph23.3 kmh 29.48 in998.3 mb 0.00 in0.0 mm 0.00 in0.0 mm 0.00 in0.0 mm
12:40 AM 32.5°F0.3°C 4.6°F-15.2°C 30% 3.2 mph NNE5.1 kmh NNE 14.5 mph23.3 kmh 29.49 in998.6 mb 0.00 in0.0 mm 0.00 in0.0 mm 0.00 in0.0 mm
12:39 AM 32.5°F0.3°C 4.6°F-15.2°C 30% 3.0 mph NE4.8 kmh NE 14.5 mph23.3 kmh 29.49 in998.6 mb 0.00 in0.0 mm 0.00 in0.0 mm 0.00 in0.0 mm
12:38 AM 32.5°F0.3°C 4.6°F-15.2°C 30% 2.9 mph NE4.7 kmh NE 14.5 mph23.3 kmh 29.49 in998.6 mb 0.00 in0.0 mm 0.00 in0.0 mm 0.00 in0.0 mm
12:37 AM 32.5°F0.3°C 4.6°F-15.2°C 30% 2.6 mph N4.2 kmh N 11.4 mph18.3 kmh 29.49 in998.6 mb 0.00 in0.0 mm 0.00 in0.0 mm 0.00 in0.0 mm
12:36 AM 32.5°F0.3°C 4.6°F-15.2°C 30% 2.2 mph NNW3.5 kmh NNW 10.7 mph17.2 kmh 29.49 in998.6 mb 0.00 in0.0 mm 0.00 in0.0 mm 0.00 in0.0 mm
12:35 AM 32.5°F0.3°C 4.6°F-15.2°C 30% 2.2 mph N3.5 kmh N 13.0 mph20.9 kmh 29.49 in998.6 mb 0.00 in0.0 mm 0.00 in0.0 mm 0.00 in0.0 mm
12:34 AM 32.5°F0.3°C 4.6°F-15.2°C 30% 2.6 mph WNW4.2 kmh WNW 13.0 mph20.9 kmh 29.49 in998.6 mb 0.00 in0.0 mm 0.00 in0.0 mm 0.00 in0.0 mm
12:33 AM 32.7°F0.4°C 4.8°F-15.1°C 30% 2.8 mph WSW4.5 kmh WSW 13.0 mph20.9 kmh 29.49 in998.6 mb 0.00 in0.0 mm 0.00 in0.0 mm 0.00 in0.0 mm
12:32 AM 32.5°F0.3°C 4.6°F-15.2°C 30% 2.5 mph SSW4.0 kmh SSW 13.0 mph20.9 kmh 29.49 in998.6 mb 0.00 in0.0 mm 0.00 in0.0 mm 0.00 in0.0 mm
12:31 AM 32.7°F0.4°C 4.8°F-15.1°C 30% 2.6 mph SSW4.2 kmh SSW 13.0 mph20.9 kmh 29.49 in998.6 mb 0.00 in0.0 mm 0.00 in0.0 mm 0.00 in0.0 mm
12:30 AM 32.7°F0.4°C 4.8°F-15.1°C 30% 2.4 mph SW3.9 kmh SW 13.0 mph20.9 kmh 29.49 in998.6 mb 0.00 in0.0 mm 0.00 in0.0 mm 0.00 in0.0 mm
12:29 AM 32.7°F0.4°C 4.8°F-15.1°C 30% 2.4 mph SW3.9 kmh SW 13.0 mph20.9 kmh 29.49 in998.6 mb 0.00 in0.0 mm 0.00 in0.0 mm 0.00 in0.0 mm
12:28 AM 32.7°F0.4°C 4.8°F-15.1°C 30% 2.5 mph SSW4.0 kmh SSW 13.0 mph20.9 kmh 29.49 in998.6 mb 0.00 in0.0 mm 0.00 in0.0 mm 0.00 in0.0 mm
12:27 AM 32.7°F0.4°C 4.8°F-15.1°C 30% 2.5 mph SW4.0 kmh SW 13.0 mph20.9 kmh 29.49 in998.6 mb 0.00 in0.0 mm 0.00 in0.0 mm 0.00 in0.0 mm
12:26 AM 32.7°F0.4°C 4.8°F-15.1°C 30% 2.4 mph SW3.9 kmh SW 13.0 mph20.9 kmh 29.49 in998.6 mb 0.00 in0.0 mm 0.00 in0.0 mm 0.00 in0.0 mm
12:25 AM 32.7°F0.4°C 5.5°F-14.7°C 31% 2.4 mph SW3.9 kmh SW 13.0 mph20.9 kmh 29.49 in998.6 mb 0.00 in0.0 mm 0.00 in0.0 mm 0.00 in0.0 mm
12:24 AM 32.7°F0.4°C 5.5°F-14.7°C 31% 1.9 mph SW3.1 kmh SW 13.0 mph20.9 kmh 29.49 in998.6 mb 0.00 in0.0 mm 0.00 in0.0 mm 0.00 in0.0 mm
12:23 AM 32.7°F0.4°C 5.5°F-14.7°C 31% 1.4 mph W2.3 kmh W 5.4 mph8.7 kmh 29.49 in998.6 mb 0.00 in0.0 mm 0.00 in0.0 mm 0.00 in0.0 mm
12:22 AM 32.7°F0.4°C 5.5°F-14.7°C 31% 1.2 mph W1.9 kmh W 5.4 mph8.7 kmh 29.49 in998.6 mb 0.00 in0.0 mm 0.00 in0.0 mm 0.00 in0.0 mm
12:21 AM 32.7°F0.4°C 5.5°F-14.7°C 31% 1.3 mph NE2.1 kmh NE 6.9 mph11.1 kmh 29.49 in998.6 mb 0.00 in0.0 mm 0.00 in0.0 mm 0.00 in0.0 mm
12:20 AM 32.7°F0.4°C 5.5°F-14.7°C 31% 1.2 mph NE1.9 kmh NE 6.9 mph11.1 kmh 29.49 in998.6 mb 0.00 in0.0 mm 0.00 in0.0 mm 0.00 in0.0 mm
12:19 AM 32.7°F0.4°C 5.5°F-14.7°C 31% 1.2 mph NNE1.9 kmh NNE 6.9 mph11.1 kmh 29.49 in998.6 mb 0.00 in0.0 mm 0.00 in0.0 mm 0.00 in0.0 mm
12:18 AM 32.7°F0.4°C 5.5°F-14.7°C 31% 1.2 mph N1.9 kmh N 6.9 mph11.1 kmh 29.49 in998.6 mb 0.00 in0.0 mm 0.00 in0.0 mm 0.00 in0.0 mm
12:17 AM 32.7°F0.4°C 5.5°F-14.7°C 31% 1.4 mph N2.3 kmh N 11.4 mph18.3 kmh 29.49 in998.6 mb 0.00 in0.0 mm 0.00 in0.0 mm 0.00 in0.0 mm
12:16 AM 32.7°F0.4°C 4.8°F-15.1°C 30% 1.7 mph N2.7 kmh N 11.4 mph18.3 kmh 29.49 in998.6 mb 0.00 in0.0 mm 0.00 in0.0 mm 0.00 in0.0 mm
12:15 AM 32.7°F0.4°C 4.8°F-15.1°C 30% 2.0 mph N3.2 kmh N 11.4 mph18.3 kmh 29.49 in998.6 mb 0.00 in0.0 mm 0.00 in0.0 mm 0.00 in0.0 mm
12:14 AM 32.7°F0.4°C 5.5°F-14.7°C 31% 2.0 mph N3.2 kmh N 11.4 mph18.3 kmh 29.49 in998.6 mb 0.00 in0.0 mm 0.00 in0.0 mm 0.00 in0.0 mm
12:13 AM 32.7°F0.4°C 4.8°F-15.1°C 30% 2.0 mph N3.2 kmh N 11.4 mph18.3 kmh 29.49 in998.6 mb 0.00 in0.0 mm 0.00 in0.0 mm 0.00 in0.0 mm
12:12 AM 32.7°F0.4°C 4.8°F-15.1°C 30% 2.3 mph NNW3.7 kmh NNW 11.4 mph18.3 kmh 29.49 in998.6 mb 0.00 in0.0 mm 0.00 in0.0 mm 0.00 in0.0 mm
12:11 AM 32.7°F0.4°C 4.8°F-15.1°C 30% 2.3 mph NW3.7 kmh NW 11.4 mph18.3 kmh 29.49 in998.6 mb 0.00 in0.0 mm 0.00 in0.0 mm 0.00 in0.0 mm
12:10 AM 32.7°F0.4°C 4.8°F-15.1°C 30% 2.3 mph NW3.7 kmh NW 11.4 mph18.3 kmh 29.49 in998.6 mb 0.00 in0.0 mm 0.00 in0.0 mm 0.00 in0.0 mm
12:09 AM 32.7°F0.4°C 4.8°F-15.1°C 30% 2.3 mph NW3.7 kmh NW 11.4 mph18.3 kmh 29.49 in998.6 mb 0.00 in0.0 mm 0.00 in0.0 mm 0.00 in0.0 mm
12:08 AM 32.7°F0.4°C 4.8°F-15.1°C 30% 2.5 mph NNW4.0 kmh NNW 11.4 mph18.3 kmh 29.49 in998.6 mb 0.00 in0.0 mm 0.00 in0.0 mm 0.00 in0.0 mm
12:07 AM 32.7°F0.4°C 5.5°F-14.7°C 31% 2.8 mph NW4.5 kmh NW 12.1 mph19.5 kmh 29.49 in998.6 mb 0.00 in0.0 mm 0.00 in0.0 mm 0.00 in0.0 mm
12:06 AM 32.7°F0.4°C 5.5°F-14.7°C 31% 2.8 mph NW4.5 kmh NW 12.1 mph19.5 kmh 29.49 in998.6 mb 0.00 in0.0 mm 0.00 in0.0 mm 0.00 in0.0 mm
12:05 AM 32.7°F0.4°C 5.5°F-14.7°C 31% 2.5 mph NW4.0 kmh NW 12.1 mph19.5 kmh 29.49 in998.6 mb 0.00 in0.0 mm 0.00 in0.0 mm 0.00 in0.0 mm
12:04 AM 32.7°F0.4°C 5.5°F-14.7°C 31% 2.4 mph NW3.9 kmh NW 12.1 mph19.5 kmh 29.49 in998.6 mb 0.00 in0.0 mm 0.00 in0.0 mm 0.00 in0.0 mm
12:03 AM 32.7°F0.4°C 5.5°F-14.7°C 31% 2.4 mph NW3.9 kmh NW 12.1 mph19.5 kmh 29.49 in998.6 mb 0.00 in0.0 mm 0.00 in0.0 mm 0.00 in0.0 mm
12:02 AM 32.7°F0.4°C 5.5°F-14.7°C 31% 2.3 mph NW3.7 kmh NW 12.1 mph19.5 kmh 29.49 in998.6 mb 0.00 in0.0 mm 0.00 in0.0 mm 0.00 in0.0 mm
12:01 AM 32.7°F0.4°C 5.5°F-14.7°C 31% 2.2 mph NNW3.5 kmh NNW 12.1 mph19.5 kmh 29.49 in998.6 mb 0.00 in0.0 mm 0.00 in0.0 mm 0.00 in0.0 mm
12:00 AM 32.7°F0.4°C 5.5°F-14.7°C 31% 2.2 mph NW3.5 kmh NW 12.1 mph19.5 kmh 29.49 in998.6 mb 0.00 in0.0 mm 0.00 in0.0 mm 0.00 in0.0 mm